DLH7K EDDF-KBOS
Flight info
| Callsign | DLH7K |
|---|---|
| Flight time | 6h 53m |
| Altitude | 34000 |
| Route | OBOKA3M/25C OBOKA Z28 DIBIR DCT BUDIP DCT RAVLO Y70 OTBED L60 PENIL M144 BAGSO DCT ADBUS DCT DOGAL/M084F350 NATC ELSIR/N0480F360 DCT TUSKY DCT EURRO |
| Aircraft | A346/H-SDE2E3FGHIJ3J4J5M1RWXY/LB1D1 |
Departure
| Time | 2026-05-07 11:23 |
|---|---|
| Airport | Frankfurt Main Airport (EDDF) |
Arrival
| Time | 2026-05-07 18:17 |
|---|---|
| Airport | Boston Logan International Airport (KBOS) |
| Time | Latitude | Longitude | Altitude | Speed | Heading |
|---|---|---|---|---|---|
| 2026-05-07 10:46 | 50.04641 | 8.55945 | 370 ft | 0 kts | 340° |
| 2026-05-07 11:07 | 50.04627 | 8.55953 | 368 ft | 4 kts | 339° |
| 2026-05-07 11:08 | 50.04604 | 8.55966 | 370 ft | 2 kts | 341° |
| 2026-05-07 11:08 | 50.04584 | 8.55982 | 367 ft | 4 kts | 319° |
| 2026-05-07 11:08 | 50.04573 | 8.56007 | 370 ft | 4 kts | 283° |
| 2026-05-07 11:08 | 50.04573 | 8.56041 | 368 ft | 4 kts | 256° |
| 2026-05-07 11:09 | 50.04581 | 8.56081 | 368 ft | 4 kts | 249° |
| 2026-05-07 11:09 | 50.04584 | 8.56094 | 369 ft | 0 kts | 250° |
| 2026-05-07 11:11 | 50.04583 | 8.56088 | 368 ft | 1 kts | 250° |
| 2026-05-07 11:11 | 50.04577 | 8.56062 | 371 ft | 4 kts | 250° |
| 2026-05-07 11:12 | 50.04564 | 8.56014 | 368 ft | 6 kts | 241° |
| 2026-05-07 11:12 | 50.04531 | 8.55966 | 367 ft | 7 kts | 207° |
| 2026-05-07 11:12 | 50.04486 | 8.55938 | 370 ft | 8 kts | 199° |
| 2026-05-07 11:13 | 50.04456 | 8.55923 | 368 ft | 9 kts | 195° |
| 2026-05-07 11:13 | 50.04390 | 8.55913 | 369 ft | 11 kts | 174° |
| 2026-05-07 11:13 | 50.04325 | 8.55940 | 367 ft | 13 kts | 161° |
| 2026-05-07 11:13 | 50.04311 | 8.55948 | 367 ft | 0 kts | 161° |
| 2026-05-07 11:14 | 50.04299 | 8.55954 | 368 ft | 3 kts | 163° |
| 2026-05-07 11:14 | 50.04268 | 8.55958 | 364 ft | 6 kts | 190° |
| 2026-05-07 11:14 | 50.04233 | 8.55916 | 363 ft | 6 kts | 204° |
| 2026-05-07 11:14 | 50.04179 | 8.55925 | 365 ft | 10 kts | 163° |
| 2026-05-07 11:15 | 50.04142 | 8.55943 | 365 ft | 0 kts | 161° |
| 2026-05-07 11:15 | 50.04133 | 8.55948 | 367 ft | 3 kts | 161° |
| 2026-05-07 11:15 | 50.04108 | 8.55962 | 364 ft | 5 kts | 161° |
| 2026-05-07 11:15 | 50.04076 | 8.56001 | 365 ft | 7 kts | 113° |
| 2026-05-07 11:16 | 50.04082 | 8.56087 | 364 ft | 9 kts | 71° |
| 2026-05-07 11:16 | 50.04103 | 8.56180 | 366 ft | 9 kts | 70° |
| 2026-05-07 11:16 | 50.04127 | 8.56280 | 362 ft | 10 kts | 70° |
| 2026-05-07 11:16 | 50.04153 | 8.56387 | 366 ft | 11 kts | 70° |
| 2026-05-07 11:17 | 50.04179 | 8.56499 | 370 ft | 11 kts | 70° |
| 2026-05-07 11:17 | 50.04208 | 8.56618 | 366 ft | 12 kts | 69° |
| 2026-05-07 11:17 | 50.04237 | 8.56738 | 370 ft | 12 kts | 69° |
| 2026-05-07 11:17 | 50.04266 | 8.56859 | 372 ft | 12 kts | 69° |
| 2026-05-07 11:18 | 50.04297 | 8.56989 | 373 ft | 13 kts | 69° |
| 2026-05-07 11:18 | 50.04330 | 8.57124 | 373 ft | 13 kts | 69° |
| 2026-05-07 11:18 | 50.04364 | 8.57269 | 373 ft | 15 kts | 70° |
| 2026-05-07 11:18 | 50.04400 | 8.57419 | 372 ft | 15 kts | 70° |
| 2026-05-07 11:19 | 50.04437 | 8.57579 | 375 ft | 15 kts | 70° |
| 2026-05-07 11:19 | 50.04474 | 8.57734 | 376 ft | 16 kts | 70° |
| 2026-05-07 11:19 | 50.04514 | 8.57899 | 377 ft | 17 kts | 69° |
| 2026-05-07 11:19 | 50.04556 | 8.58072 | 374 ft | 18 kts | 70° |
| 2026-05-07 11:20 | 50.04599 | 8.58253 | 377 ft | 17 kts | 70° |
| 2026-05-07 11:20 | 50.04638 | 8.58420 | 378 ft | 12 kts | 70° |
| 2026-05-07 11:20 | 50.04654 | 8.58501 | 380 ft | 8 kts | 90° |
| 2026-05-07 11:20 | 50.04618 | 8.58568 | 378 ft | 9 kts | 152° |
| 2026-05-07 11:21 | 50.04558 | 8.58608 | 381 ft | 9 kts | 160° |
| 2026-05-07 11:21 | 50.04498 | 8.58599 | 382 ft | 9 kts | 221° |
| 2026-05-07 11:21 | 50.04472 | 8.58524 | 382 ft | 0 kts | 249° |
| 2026-05-07 11:22 | 50.04463 | 8.58488 | 381 ft | 15 kts | 249° |
| 2026-05-07 11:22 | 50.04359 | 8.58053 | 378 ft | 70 kts | 250° |
| 2026-05-07 11:22 | 50.04130 | 8.57094 | 373 ft | 117 kts | 250° |
| 2026-05-07 11:23 | 50.03795 | 8.55684 | 364 ft | 162 kts | 249° |
| 2026-05-07 11:23 | 50.03348 | 8.53818 | 561 ft | 191 kts | 249° |
| 2026-05-07 11:23 | 50.02888 | 8.51908 | 1142 ft | 186 kts | 250° |
| 2026-05-07 11:23 | 50.02280 | 8.50179 | 1831 ft | 182 kts | 221° |
| 2026-05-07 11:24 | 50.01129 | 8.49256 | 2205 ft | 198 kts | 197° |
| 2026-05-07 11:24 | 49.99667 | 8.48871 | 2589 ft | 229 kts | 185° |
| 2026-05-07 11:24 | 49.97971 | 8.48923 | 2993 ft | 256 kts | 180° |
| 2026-05-07 11:24 | 49.96228 | 8.48503 | 3677 ft | 253 kts | 206° |
| 2026-05-07 11:25 | 49.94665 | 8.47260 | 4332 ft | 253 kts | 208° |
| 2026-05-07 11:25 | 49.93052 | 8.46067 | 4901 ft | 259 kts | 204° |
| 2026-05-07 11:25 | 49.91483 | 8.44752 | 5461 ft | 261 kts | 223° |
| 2026-05-07 11:25 | 49.90380 | 8.42537 | 6108 ft | 261 kts | 241° |
| 2026-05-07 11:26 | 49.89488 | 8.40068 | 6758 ft | 263 kts | 241° |
| 2026-05-07 11:26 | 49.88717 | 8.37484 | 7364 ft | 266 kts | 256° |
| 2026-05-07 11:26 | 49.88577 | 8.34610 | 8005 ft | 269 kts | 274° |
| 2026-05-07 11:26 | 49.88746 | 8.31709 | 8658 ft | 271 kts | 275° |
| 2026-05-07 11:27 | 49.88939 | 8.28779 | 9304 ft | 274 kts | 278° |
| 2026-05-07 11:27 | 49.89486 | 8.25929 | 9928 ft | 279 kts | 295° |
| 2026-05-07 11:27 | 49.90525 | 8.23358 | 10473 ft | 286 kts | 304° |
| 2026-05-07 11:27 | 49.91745 | 8.20831 | 10773 ft | 300 kts | 305° |
| 2026-05-07 11:28 | 49.93058 | 8.18191 | 11041 ft | 315 kts | 308° |
| 2026-05-07 11:28 | 49.94026 | 8.16448 | 11217 ft | 325 kts | 311° |
| 2026-05-07 11:28 | 49.95670 | 8.13914 | 11490 ft | 341 kts | 316° |
| 2026-05-07 11:28 | 49.97499 | 8.11437 | 11762 ft | 356 kts | 317° |
| 2026-05-07 11:29 | 49.99423 | 8.08887 | 12018 ft | 370 kts | 318° |
| 2026-05-07 11:29 | 50.01404 | 8.06263 | 12459 ft | 378 kts | 318° |
| 2026-05-07 11:29 | 50.04070 | 8.02716 | 13343 ft | 380 kts | 318° |
| 2026-05-07 11:29 | 50.05442 | 8.00883 | 13774 ft | 382 kts | 318° |
| 2026-05-07 11:30 | 50.08133 | 7.97279 | 14504 ft | 387 kts | 318° |
| 2026-05-07 11:30 | 50.09515 | 7.95424 | 14865 ft | 389 kts | 317° |
| 2026-05-07 11:30 | 50.11549 | 7.92689 | 15434 ft | 392 kts | 317° |
| 2026-05-07 11:30 | 50.13622 | 7.89897 | 15983 ft | 395 kts | 317° |
| 2026-05-07 11:31 | 50.15714 | 7.87075 | 16507 ft | 399 kts | 317° |
| 2026-05-07 11:31 | 50.17825 | 7.84221 | 17009 ft | 402 kts | 317° |
| 2026-05-07 11:31 | 50.19955 | 7.81341 | 17567 ft | 406 kts | 317° |
| 2026-05-07 11:31 | 50.22097 | 7.78441 | 18093 ft | 409 kts | 317° |
| 2026-05-07 11:32 | 50.26767 | 7.73185 | 19017 ft | 418 kts | 329° |
| 2026-05-07 11:32 | 50.29380 | 7.71125 | 19504 ft | 422 kts | 334° |
| 2026-05-07 11:32 | 50.32038 | 7.69287 | 19990 ft | 424 kts | 335° |
| 2026-05-07 11:33 | 50.34764 | 7.67452 | 20452 ft | 427 kts | 335° |
| 2026-05-07 11:33 | 50.37516 | 7.65593 | 20915 ft | 430 kts | 335° |
| 2026-05-07 11:33 | 50.40253 | 7.63728 | 21381 ft | 432 kts | 335° |
| 2026-05-07 11:33 | 50.43015 | 7.61833 | 21837 ft | 435 kts | 335° |
| 2026-05-07 11:34 | 50.45797 | 7.59916 | 22292 ft | 437 kts | 335° |
| 2026-05-07 11:34 | 50.48595 | 7.57985 | 22744 ft | 440 kts | 335° |
| 2026-05-07 11:34 | 50.51405 | 7.56044 | 23201 ft | 442 kts | 335° |
| 2026-05-07 11:34 | 50.54202 | 7.54005 | 23618 ft | 445 kts | 332° |
| 2026-05-07 11:35 | 50.56947 | 7.51705 | 23988 ft | 447 kts | 329° |
| 2026-05-07 11:35 | 50.59606 | 7.49165 | 24361 ft | 448 kts | 326° |
| 2026-05-07 11:35 | 50.62234 | 7.46489 | 24738 ft | 450 kts | 326° |
| 2026-05-07 11:35 | 50.64859 | 7.43770 | 25106 ft | 452 kts | 326° |
| 2026-05-07 11:36 | 50.67476 | 7.41063 | 25463 ft | 455 kts | 326° |
| 2026-05-07 11:36 | 50.70168 | 7.38287 | 25823 ft | 457 kts | 326° |
| 2026-05-07 11:36 | 50.72745 | 7.35325 | 26154 ft | 459 kts | 320° |
| 2026-05-07 11:36 | 50.75050 | 7.31938 | 26473 ft | 460 kts | 313° |
| 2026-05-07 11:37 | 50.77128 | 7.28046 | 26815 ft | 462 kts | 307° |
| 2026-05-07 11:37 | 50.79011 | 7.23924 | 27164 ft | 464 kts | 305° |
| 2026-05-07 11:37 | 50.80870 | 7.19714 | 27496 ft | 466 kts | 304° |
| 2026-05-07 11:37 | 50.82727 | 7.15483 | 27815 ft | 469 kts | 304° |
| 2026-05-07 11:38 | 50.84600 | 7.11230 | 28130 ft | 471 kts | 304° |
| 2026-05-07 11:38 | 50.86487 | 7.06961 | 28455 ft | 473 kts | 304° |
| 2026-05-07 11:38 | 50.88347 | 7.02760 | 28916 ft | 471 kts | 305° |
| 2026-05-07 11:38 | 50.90233 | 6.98503 | 29448 ft | 469 kts | 305° |
| 2026-05-07 11:39 | 50.92114 | 6.94260 | 29934 ft | 468 kts | 305° |
| 2026-05-07 11:39 | 50.93987 | 6.90029 | 30352 ft | 467 kts | 304° |
| 2026-05-07 11:39 | 50.95854 | 6.85805 | 30722 ft | 466 kts | 304° |
| 2026-05-07 11:39 | 50.97710 | 6.81593 | 31103 ft | 465 kts | 304° |
| 2026-05-07 11:40 | 50.99562 | 6.77383 | 31490 ft | 463 kts | 304° |
| 2026-05-07 11:40 | 51.01381 | 6.73237 | 31863 ft | 462 kts | 304° |
| 2026-05-07 11:40 | 51.03222 | 6.69032 | 32244 ft | 461 kts | 304° |
| 2026-05-07 11:40 | 51.05075 | 6.64791 | 32591 ft | 461 kts | 304° |
| 2026-05-07 11:41 | 51.06878 | 6.60656 | 32866 ft | 462 kts | 304° |
| 2026-05-07 11:41 | 51.08711 | 6.56451 | 33106 ft | 463 kts | 304° |
| 2026-05-07 11:41 | 51.10552 | 6.52227 | 33352 ft | 464 kts | 304° |
| 2026-05-07 11:41 | 51.12392 | 6.47999 | 33609 ft | 465 kts | 304° |
| 2026-05-07 11:42 | 51.14248 | 6.43727 | 33859 ft | 466 kts | 304° |
| 2026-05-07 11:42 | 51.16093 | 6.39470 | 34043 ft | 467 kts | 304° |
| 2026-05-07 11:42 | 51.17941 | 6.35195 | 34034 ft | 468 kts | 304° |
| 2026-05-07 11:43 | 51.21625 | 6.26648 | 34045 ft | 468 kts | 303° |
| 2026-05-07 11:43 | 51.25310 | 6.18067 | 34044 ft | 468 kts | 303° |
| 2026-05-07 11:44 | 51.28975 | 6.09454 | 34042 ft | 468 kts | 302° |
| 2026-05-07 11:44 | 51.32535 | 6.00733 | 34041 ft | 468 kts | 302° |
| 2026-05-07 11:45 | 51.36123 | 5.92044 | 34041 ft | 468 kts | 304° |
| 2026-05-07 11:45 | 51.40158 | 5.83831 | 34043 ft | 469 kts | 310° |
| 2026-05-07 11:46 | 51.44582 | 5.76217 | 34048 ft | 469 kts | 313° |
| 2026-05-07 11:46 | 51.49095 | 5.68630 | 34045 ft | 469 kts | 312° |
| 2026-05-07 11:47 | 51.53280 | 5.61562 | 34047 ft | 470 kts | 312° |
| 2026-05-07 11:47 | 51.57813 | 5.53872 | 34048 ft | 470 kts | 312° |
| 2026-05-07 11:48 | 51.62306 | 5.46218 | 34050 ft | 470 kts | 312° |
| 2026-05-07 11:48 | 51.66768 | 5.38591 | 34050 ft | 470 kts | 312° |
| 2026-05-07 11:49 | 51.71196 | 5.30999 | 34054 ft | 470 kts | 312° |
| 2026-05-07 11:49 | 51.75677 | 5.23293 | 34062 ft | 471 kts | 312° |
| 2026-05-07 11:50 | 51.80164 | 5.15550 | 34063 ft | 471 kts | 312° |
| 2026-05-07 11:50 | 51.84637 | 5.07808 | 34065 ft | 471 kts | 311° |
| 2026-05-07 11:51 | 51.89108 | 5.00046 | 34064 ft | 471 kts | 311° |
| 2026-05-07 11:51 | 51.93553 | 4.92306 | 34067 ft | 471 kts | 311° |
| 2026-05-07 11:52 | 51.98019 | 4.84504 | 34064 ft | 471 kts | 311° |
| 2026-05-07 11:52 | 52.02470 | 4.76701 | 34070 ft | 471 kts | 311° |
| 2026-05-07 11:53 | 52.06925 | 4.68869 | 34071 ft | 471 kts | 311° |
| 2026-05-07 11:53 | 52.11232 | 4.61273 | 34072 ft | 471 kts | 311° |
| 2026-05-07 11:54 | 52.15654 | 4.53451 | 34072 ft | 472 kts | 311° |
| 2026-05-07 11:54 | 52.20105 | 4.45553 | 34075 ft | 472 kts | 311° |
| 2026-05-07 11:55 | 52.24554 | 4.37630 | 34077 ft | 473 kts | 311° |
| 2026-05-07 11:55 | 52.29007 | 4.29674 | 34079 ft | 474 kts | 312° |
| 2026-05-07 11:56 | 52.33463 | 4.21690 | 34087 ft | 475 kts | 312° |
| 2026-05-07 11:56 | 52.37913 | 4.13689 | 34095 ft | 475 kts | 312° |
| 2026-05-07 11:57 | 52.42370 | 4.05651 | 34097 ft | 476 kts | 312° |
| 2026-05-07 11:57 | 52.46797 | 3.97638 | 34097 ft | 477 kts | 312° |
| 2026-05-07 11:58 | 52.51262 | 3.89532 | 34098 ft | 478 kts | 313° |
| 2026-05-07 11:58 | 52.55712 | 3.81430 | 34097 ft | 479 kts | 313° |
| 2026-05-07 11:59 | 52.60035 | 3.73536 | 34098 ft | 479 kts | 313° |
| 2026-05-07 11:59 | 52.64492 | 3.65366 | 34102 ft | 479 kts | 313° |
| 2026-05-07 12:00 | 52.68948 | 3.57167 | 34104 ft | 480 kts | 313° |
| 2026-05-07 12:00 | 52.73401 | 3.48946 | 34101 ft | 481 kts | 313° |
| 2026-05-07 12:01 | 52.77859 | 3.40687 | 34109 ft | 481 kts | 313° |
| 2026-05-07 12:01 | 52.82311 | 3.32410 | 34110 ft | 482 kts | 313° |
| 2026-05-07 12:02 | 52.86660 | 3.23964 | 34108 ft | 483 kts | 308° |
| 2026-05-07 12:02 | 52.90267 | 3.14545 | 34114 ft | 485 kts | 298° |
| 2026-05-07 12:03 | 52.92917 | 3.04230 | 34112 ft | 487 kts | 289° |
| 2026-05-07 12:03 | 52.94598 | 2.93402 | 34113 ft | 488 kts | 283° |
| 2026-05-07 12:04 | 52.96009 | 2.82364 | 34109 ft | 488 kts | 283° |
| 2026-05-07 12:04 | 52.97421 | 2.71321 | 34114 ft | 489 kts | 283° |
| 2026-05-07 12:05 | 52.98843 | 2.60259 | 34114 ft | 489 kts | 283° |
| 2026-05-07 12:05 | 53.00259 | 2.49197 | 34114 ft | 489 kts | 282° |
| 2026-05-07 12:06 | 53.01665 | 2.38128 | 34112 ft | 489 kts | 282° |
| 2026-05-07 12:06 | 53.03061 | 2.27039 | 34109 ft | 489 kts | 282° |
| 2026-05-07 12:07 | 53.04446 | 2.15928 | 34109 ft | 490 kts | 282° |
| 2026-05-07 12:07 | 53.05816 | 2.04891 | 34111 ft | 490 kts | 282° |
| 2026-05-07 12:08 | 53.07186 | 1.93782 | 34112 ft | 490 kts | 282° |
| 2026-05-07 12:08 | 53.08542 | 1.82659 | 34111 ft | 490 kts | 282° |
| 2026-05-07 12:09 | 53.09885 | 1.71529 | 34106 ft | 490 kts | 282° |
| 2026-05-07 12:09 | 53.11217 | 1.60394 | 34107 ft | 490 kts | 282° |
| 2026-05-07 12:10 | 53.12540 | 1.49235 | 34105 ft | 490 kts | 281° |
| 2026-05-07 12:10 | 53.13850 | 1.38093 | 34108 ft | 490 kts | 281° |
| 2026-05-07 12:11 | 53.15150 | 1.26941 | 34103 ft | 490 kts | 281° |
| 2026-05-07 12:11 | 53.16442 | 1.15758 | 34106 ft | 490 kts | 281° |
| 2026-05-07 12:12 | 53.17722 | 1.04575 | 34101 ft | 490 kts | 281° |
| 2026-05-07 12:12 | 53.18982 | 0.93473 | 34094 ft | 490 kts | 281° |
| 2026-05-07 12:13 | 53.20242 | 0.82258 | 34093 ft | 490 kts | 281° |
| 2026-05-07 12:13 | 53.21487 | 0.71064 | 34091 ft | 490 kts | 281° |
| 2026-05-07 12:14 | 53.22724 | 0.59849 | 34083 ft | 490 kts | 281° |
| 2026-05-07 12:14 | 53.23951 | 0.48643 | 34076 ft | 490 kts | 280° |
| 2026-05-07 12:15 | 53.25170 | 0.37435 | 34073 ft | 490 kts | 280° |
| 2026-05-07 12:15 | 53.26381 | 0.26220 | 34068 ft | 490 kts | 280° |
| 2026-05-07 12:16 | 53.27575 | 0.14987 | 34069 ft | 490 kts | 280° |
| 2026-05-07 12:16 | 53.28559 | 0.05638 | 34068 ft | 490 kts | 280° |
| 2026-05-07 12:17 | 53.29931 | -0.07434 | 34071 ft | 490 kts | 279° |
| 2026-05-07 12:17 | 53.31097 | -0.18681 | 34072 ft | 490 kts | 279° |
| 2026-05-07 12:18 | 53.32054 | -0.28024 | 34074 ft | 490 kts | 279° |
| 2026-05-07 12:18 | 53.33193 | -0.39278 | 34074 ft | 490 kts | 279° |
| 2026-05-07 12:19 | 53.34328 | -0.50534 | 34073 ft | 490 kts | 279° |
| 2026-05-07 12:19 | 53.35451 | -0.61813 | 34074 ft | 490 kts | 279° |
| 2026-05-07 12:20 | 53.36565 | -0.73080 | 34069 ft | 489 kts | 279° |
| 2026-05-07 12:20 | 53.37667 | -0.84339 | 34069 ft | 489 kts | 278° |
| 2026-05-07 12:21 | 53.38758 | -0.95624 | 34066 ft | 489 kts | 278° |
| 2026-05-07 12:21 | 53.39840 | -1.06915 | 34068 ft | 489 kts | 278° |
| 2026-05-07 12:22 | 53.40902 | -1.18114 | 34064 ft | 489 kts | 278° |
| 2026-05-07 12:22 | 53.41962 | -1.29428 | 34064 ft | 489 kts | 278° |
| 2026-05-07 12:23 | 53.43012 | -1.40721 | 34059 ft | 489 kts | 278° |
| 2026-05-07 12:23 | 53.44014 | -1.51662 | 34057 ft | 489 kts | 278° |
| 2026-05-07 12:24 | 53.45044 | -1.62960 | 34059 ft | 489 kts | 277° |
| 2026-05-07 12:24 | 53.46062 | -1.74304 | 34057 ft | 489 kts | 277° |
| 2026-05-07 12:25 | 53.47066 | -1.85609 | 34050 ft | 489 kts | 277° |
| 2026-05-07 12:25 | 53.48066 | -1.96952 | 34046 ft | 489 kts | 277° |
| 2026-05-07 12:26 | 53.49041 | -2.08210 | 34043 ft | 489 kts | 277° |
| 2026-05-07 12:26 | 53.50012 | -2.19534 | 34053 ft | 489 kts | 277° |
| 2026-05-07 12:27 | 53.50981 | -2.30859 | 34048 ft | 489 kts | 276° |
| 2026-05-07 12:27 | 53.51936 | -2.42185 | 34047 ft | 488 kts | 276° |
| 2026-05-07 12:28 | 53.52877 | -2.53518 | 34051 ft | 488 kts | 276° |
| 2026-05-07 12:28 | 53.53805 | -2.64848 | 34040 ft | 488 kts | 276° |
| 2026-05-07 12:29 | 53.54717 | -2.76114 | 34024 ft | 488 kts | 276° |
| 2026-05-07 12:29 | 53.55597 | -2.87112 | 34025 ft | 488 kts | 276° |
| 2026-05-07 12:30 | 53.56494 | -2.98480 | 34025 ft | 488 kts | 276° |
| 2026-05-07 12:30 | 53.57378 | -3.09814 | 34014 ft | 488 kts | 275° |
| 2026-05-07 12:31 | 53.58251 | -3.21144 | 34015 ft | 488 kts | 275° |
| 2026-05-07 12:31 | 53.59113 | -3.32490 | 34025 ft | 487 kts | 275° |
| 2026-05-07 12:32 | 53.59957 | -3.43757 | 34024 ft | 487 kts | 275° |
| 2026-05-07 12:32 | 53.60796 | -3.55146 | 34022 ft | 487 kts | 275° |
| 2026-05-07 12:33 | 53.61876 | -3.72144 | 34017 ft | 486 kts | 272° |
| 2026-05-07 12:33 | 53.62342 | -3.83537 | 34006 ft | 486 kts | 271° |
| 2026-05-07 12:34 | 53.62793 | -3.94914 | 34007 ft | 486 kts | 271° |
| 2026-05-07 12:34 | 53.63246 | -4.06326 | 34010 ft | 486 kts | 271° |
| 2026-05-07 12:35 | 53.63689 | -4.17688 | 34009 ft | 485 kts | 271° |
| 2026-05-07 12:35 | 53.64115 | -4.29007 | 34007 ft | 485 kts | 271° |
| 2026-05-07 12:36 | 53.64533 | -4.40373 | 34009 ft | 485 kts | 271° |
| 2026-05-07 12:36 | 53.64944 | -4.51730 | 34002 ft | 485 kts | 270° |
| 2026-05-07 12:37 | 53.65344 | -4.63099 | 34003 ft | 484 kts | 270° |
| 2026-05-07 12:37 | 53.65726 | -4.74469 | 34001 ft | 484 kts | 270° |
| 2026-05-07 12:38 | 53.66099 | -4.85821 | 34001 ft | 484 kts | 270° |
| 2026-05-07 12:38 | 53.66469 | -4.97095 | 33996 ft | 483 kts | 270° |
| 2026-05-07 12:39 | 53.66825 | -5.08430 | 34000 ft | 483 kts | 270° |
| 2026-05-07 12:39 | 53.67170 | -5.19768 | 33995 ft | 483 kts | 269° |
| 2026-05-07 12:40 | 53.67497 | -5.31092 | 33991 ft | 482 kts | 269° |
| 2026-05-07 12:40 | 53.67822 | -5.42425 | 33990 ft | 482 kts | 270° |
| 2026-05-07 12:41 | 53.68601 | -5.53718 | 33987 ft | 485 kts | 276° |
| 2026-05-07 12:41 | 53.70006 | -5.64890 | 33983 ft | 486 kts | 279° |
| 2026-05-07 12:42 | 53.71517 | -5.75967 | 33980 ft | 486 kts | 279° |
| 2026-05-07 12:42 | 53.73021 | -5.87115 | 33978 ft | 486 kts | 279° |
| 2026-05-07 12:43 | 53.74503 | -5.98257 | 33970 ft | 485 kts | 279° |
| 2026-05-07 12:43 | 53.75973 | -6.09410 | 33968 ft | 485 kts | 279° |
| 2026-05-07 12:44 | 53.77430 | -6.20559 | 33966 ft | 484 kts | 279° |
| 2026-05-07 12:44 | 53.78865 | -6.31630 | 33957 ft | 484 kts | 278° |
| 2026-05-07 12:45 | 53.80300 | -6.42789 | 33957 ft | 484 kts | 278° |
| 2026-05-07 12:45 | 53.81721 | -6.53931 | 33959 ft | 483 kts | 278° |
| 2026-05-07 12:46 | 53.83124 | -6.65015 | 33950 ft | 483 kts | 278° |
| 2026-05-07 12:46 | 53.84522 | -6.76147 | 33947 ft | 482 kts | 278° |
| 2026-05-07 12:47 | 53.85910 | -6.87294 | 33943 ft | 482 kts | 278° |
| 2026-05-07 12:47 | 53.87285 | -6.98413 | 33940 ft | 481 kts | 278° |
| 2026-05-07 12:48 | 53.88647 | -7.09530 | 33933 ft | 481 kts | 278° |
| 2026-05-07 12:48 | 53.89998 | -7.20648 | 33929 ft | 480 kts | 278° |
| 2026-05-07 12:49 | 53.91337 | -7.31754 | 33928 ft | 479 kts | 277° |
| 2026-05-07 12:49 | 53.92655 | -7.42778 | 33928 ft | 479 kts | 277° |
| 2026-05-07 12:50 | 53.93971 | -7.53881 | 33921 ft | 478 kts | 277° |
| 2026-05-07 12:50 | 53.95277 | -7.64993 | 33916 ft | 478 kts | 277° |
| 2026-05-07 12:51 | 53.96568 | -7.76071 | 33913 ft | 478 kts | 277° |
| 2026-05-07 12:51 | 53.97843 | -7.87104 | 33908 ft | 477 kts | 277° |
| 2026-05-07 12:52 | 53.99114 | -7.98194 | 33912 ft | 477 kts | 277° |
| 2026-05-07 12:52 | 54.00372 | -8.09267 | 33914 ft | 476 kts | 277° |
| 2026-05-07 12:53 | 54.01620 | -8.20346 | 33910 ft | 475 kts | 277° |
| 2026-05-07 12:53 | 54.02855 | -8.31412 | 33919 ft | 475 kts | 277° |
| 2026-05-07 12:54 | 54.04078 | -8.42473 | 33917 ft | 474 kts | 277° |
| 2026-05-07 12:54 | 54.05290 | -8.53523 | 33909 ft | 474 kts | 277° |
| 2026-05-07 12:55 | 54.06481 | -8.64480 | 33913 ft | 473 kts | 277° |
| 2026-05-07 12:55 | 54.07669 | -8.75503 | 33911 ft | 472 kts | 276° |
| 2026-05-07 12:56 | 54.08847 | -8.86537 | 33911 ft | 472 kts | 276° |
| 2026-05-07 12:56 | 54.10010 | -8.97538 | 33907 ft | 471 kts | 276° |
| 2026-05-07 12:57 | 54.11163 | -9.08540 | 33909 ft | 470 kts | 276° |
| 2026-05-07 12:57 | 54.12304 | -9.19526 | 33907 ft | 469 kts | 276° |
| 2026-05-07 12:58 | 54.13434 | -9.30515 | 33904 ft | 469 kts | 276° |
| 2026-05-07 12:58 | 54.14551 | -9.41476 | 33906 ft | 468 kts | 276° |
| 2026-05-07 12:59 | 54.15657 | -9.52432 | 33913 ft | 467 kts | 276° |
| 2026-05-07 12:59 | 54.16744 | -9.63312 | 33905 ft | 467 kts | 276° |
| 2026-05-07 13:00 | 54.17828 | -9.74261 | 33907 ft | 466 kts | 276° |
| 2026-05-07 13:00 | 54.18896 | -9.85183 | 33914 ft | 465 kts | 276° |
| 2026-05-07 13:01 | 54.19954 | -9.96103 | 33909 ft | 465 kts | 276° |
| 2026-05-07 13:01 | 54.21004 | -10.07028 | 33911 ft | 464 kts | 275° |
| 2026-05-07 13:02 | 54.22042 | -10.17935 | 33909 ft | 464 kts | 275° |
| 2026-05-07 13:02 | 54.23070 | -10.28831 | 33918 ft | 463 kts | 275° |
| 2026-05-07 13:03 | 54.24079 | -10.39647 | 33917 ft | 463 kts | 275° |
| 2026-05-07 13:03 | 54.25084 | -10.50533 | 33915 ft | 462 kts | 275° |
| 2026-05-07 13:04 | 54.26078 | -10.61411 | 33911 ft | 462 kts | 275° |
| 2026-05-07 13:04 | 54.27061 | -10.72270 | 33915 ft | 461 kts | 274° |
| 2026-05-07 13:05 | 54.28033 | -10.83129 | 33910 ft | 461 kts | 274° |
| 2026-05-07 13:05 | 54.28994 | -10.93982 | 33907 ft | 460 kts | 274° |
| 2026-05-07 13:06 | 54.29946 | -11.04834 | 33905 ft | 460 kts | 274° |
| 2026-05-07 13:06 | 54.30886 | -11.15674 | 33908 ft | 460 kts | 274° |
| 2026-05-07 13:07 | 54.31818 | -11.26542 | 33909 ft | 459 kts | 274° |
| 2026-05-07 13:07 | 54.32732 | -11.37322 | 33912 ft | 459 kts | 273° |
| 2026-05-07 13:08 | 54.33490 | -11.46353 | 33911 ft | 459 kts | 273° |
| 2026-05-07 13:08 | 54.34391 | -11.57199 | 33911 ft | 459 kts | 273° |
| 2026-05-07 13:09 | 54.35282 | -11.68041 | 33913 ft | 458 kts | 272° |
| 2026-05-07 13:09 | 54.36163 | -11.78888 | 33908 ft | 458 kts | 272° |
| 2026-05-07 13:10 | 54.37033 | -11.89726 | 33901 ft | 458 kts | 272° |
| 2026-05-07 13:10 | 54.37893 | -12.00579 | 33911 ft | 458 kts | 272° |
| 2026-05-07 13:11 | 54.38740 | -12.11411 | 33908 ft | 457 kts | 272° |
| 2026-05-07 13:11 | 54.39578 | -12.22260 | 33907 ft | 457 kts | 272° |
| 2026-05-07 13:12 | 54.40391 | -12.33023 | 33911 ft | 456 kts | 271° |
| 2026-05-07 13:12 | 54.40738 | -12.43873 | 33911 ft | 451 kts | 264° |
| 2026-05-07 13:13 | 54.40356 | -12.54571 | 33919 ft | 447 kts | 258° |
| 2026-05-07 13:13 | 54.39274 | -12.65041 | 33915 ft | 443 kts | 252° |
| 2026-05-07 13:14 | 54.37701 | -12.75268 | 33914 ft | 442 kts | 251° |
| 2026-05-07 13:14 | 54.36094 | -12.85470 | 33916 ft | 442 kts | 251° |
| 2026-05-07 13:15 | 54.34488 | -12.95608 | 33919 ft | 442 kts | 251° |
| 2026-05-07 13:15 | 54.32867 | -13.05783 | 33925 ft | 442 kts | 251° |
| 2026-05-07 13:16 | 54.31233 | -13.15980 | 33919 ft | 442 kts | 251° |
| 2026-05-07 13:16 | 54.29591 | -13.26163 | 33919 ft | 442 kts | 251° |
| 2026-05-07 13:17 | 54.27941 | -13.36339 | 33923 ft | 442 kts | 251° |
| 2026-05-07 13:17 | 54.26292 | -13.46444 | 33924 ft | 442 kts | 251° |
| 2026-05-07 13:18 | 54.24628 | -13.56587 | 33929 ft | 442 kts | 251° |
| 2026-05-07 13:18 | 54.22954 | -13.66725 | 33928 ft | 442 kts | 251° |
| 2026-05-07 13:19 | 54.21285 | -13.76774 | 33931 ft | 442 kts | 251° |
| 2026-05-07 13:19 | 54.19597 | -13.86881 | 33934 ft | 442 kts | 251° |
| 2026-05-07 13:20 | 54.17899 | -13.96990 | 33935 ft | 442 kts | 251° |
| 2026-05-07 13:20 | 54.16196 | -14.07066 | 33940 ft | 442 kts | 251° |
| 2026-05-07 13:21 | 54.14490 | -14.17102 | 33942 ft | 441 kts | 251° |
| 2026-05-07 13:21 | 54.12757 | -14.27240 | 33945 ft | 441 kts | 250° |
| 2026-05-07 13:22 | 54.11039 | -14.37229 | 33945 ft | 442 kts | 250° |
| 2026-05-07 13:22 | 54.09297 | -14.47298 | 33948 ft | 442 kts | 250° |
| 2026-05-07 13:23 | 54.07547 | -14.57355 | 33949 ft | 442 kts | 250° |
| 2026-05-07 13:23 | 54.05788 | -14.67402 | 33953 ft | 442 kts | 250° |
| 2026-05-07 13:24 | 54.04019 | -14.77444 | 33955 ft | 442 kts | 250° |
| 2026-05-07 13:24 | 54.02298 | -14.87506 | 33954 ft | 443 kts | 253° |
| 2026-05-07 13:25 | 54.01059 | -14.97740 | 33960 ft | 446 kts | 258° |
| 2026-05-07 13:25 | 54.00405 | -15.08272 | 33961 ft | 448 kts | 263° |
| 2026-05-07 13:26 | 54.00360 | -15.18909 | 33963 ft | 450 kts | 268° |
| 2026-05-07 13:26 | 54.00556 | -15.29565 | 33964 ft | 450 kts | 268° |
| 2026-05-07 13:27 | 54.00750 | -15.40275 | 33975 ft | 450 kts | 268° |
| 2026-05-07 13:27 | 54.00932 | -15.50984 | 34264 ft | 452 kts | 268° |
| 2026-05-07 13:28 | 54.01019 | -15.56324 | 34628 ft | 450 kts | 268° |
| 2026-05-07 13:28 | 54.01102 | -15.61568 | 34913 ft | 450 kts | 269° |
| 2026-05-07 13:28 | 54.01266 | -15.72247 | 34971 ft | 451 kts | 269° |
| 2026-05-07 13:29 | 54.01422 | -15.82924 | 34974 ft | 451 kts | 269° |
| 2026-05-07 13:29 | 54.01567 | -15.93607 | 34981 ft | 451 kts | 269° |
| 2026-05-07 13:30 | 54.01702 | -16.04281 | 34975 ft | 451 kts | 269° |
| 2026-05-07 13:30 | 54.01828 | -16.14955 | 34987 ft | 450 kts | 269° |
| 2026-05-07 13:31 | 54.01944 | -16.25624 | 34991 ft | 450 kts | 269° |
| 2026-05-07 13:31 | 54.02049 | -16.36219 | 34984 ft | 450 kts | 269° |
| 2026-05-07 13:32 | 54.02147 | -16.46895 | 34987 ft | 450 kts | 269° |
| 2026-05-07 13:32 | 54.02234 | -16.57578 | 34986 ft | 450 kts | 269° |
| 2026-05-07 13:33 | 54.02313 | -16.68251 | 34997 ft | 450 kts | 269° |
| 2026-05-07 13:33 | 54.02381 | -16.78924 | 34993 ft | 450 kts | 269° |
| 2026-05-07 13:34 | 54.02467 | -16.94928 | 34996 ft | 450 kts | 269° |
| 2026-05-07 13:35 | 54.02512 | -17.05559 | 34996 ft | 450 kts | 269° |
| 2026-05-07 13:35 | 54.02547 | -17.16216 | 35000 ft | 450 kts | 269° |
| 2026-05-07 13:36 | 54.02574 | -17.26883 | 35003 ft | 450 kts | 269° |
| 2026-05-07 13:36 | 54.02591 | -17.37542 | 35020 ft | 450 kts | 269° |
| 2026-05-07 13:37 | 54.02598 | -17.48209 | 35015 ft | 450 kts | 269° |
| 2026-05-07 13:37 | 54.02596 | -17.58876 | 35011 ft | 450 kts | 269° |
| 2026-05-07 13:38 | 54.02584 | -17.69528 | 35018 ft | 450 kts | 269° |
| 2026-05-07 13:38 | 54.02564 | -17.80177 | 35019 ft | 450 kts | 268° |
| 2026-05-07 13:39 | 54.02533 | -17.90859 | 35019 ft | 450 kts | 268° |
| 2026-05-07 13:39 | 54.02493 | -18.01457 | 35025 ft | 450 kts | 268° |
| 2026-05-07 13:40 | 54.02444 | -18.12142 | 35025 ft | 451 kts | 268° |
| 2026-05-07 13:40 | 54.02385 | -18.22828 | 35030 ft | 451 kts | 268° |
| 2026-05-07 13:41 | 54.02317 | -18.33525 | 35030 ft | 451 kts | 268° |
| 2026-05-07 13:41 | 54.02239 | -18.44226 | 35032 ft | 452 kts | 268° |
| 2026-05-07 13:42 | 54.02152 | -18.54849 | 35033 ft | 452 kts | 268° |
| 2026-05-07 13:42 | 54.02055 | -18.65586 | 35034 ft | 452 kts | 268° |
| 2026-05-07 13:43 | 54.01948 | -18.76315 | 35039 ft | 453 kts | 268° |
| 2026-05-07 13:43 | 54.01831 | -18.87045 | 35036 ft | 453 kts | 268° |
| 2026-05-07 13:44 | 54.01706 | -18.97716 | 35043 ft | 453 kts | 268° |
| 2026-05-07 13:44 | 54.01571 | -19.08468 | 35046 ft | 454 kts | 268° |
| 2026-05-07 13:45 | 54.01425 | -19.19218 | 35047 ft | 454 kts | 268° |
| 2026-05-07 13:45 | 54.01270 | -19.29984 | 35048 ft | 454 kts | 268° |
| 2026-05-07 13:46 | 54.01104 | -19.40737 | 35053 ft | 454 kts | 268° |
| 2026-05-07 13:46 | 54.00930 | -19.51498 | 35056 ft | 455 kts | 268° |
| 2026-05-07 13:47 | 54.00745 | -19.62275 | 35059 ft | 455 kts | 268° |
| 2026-05-07 13:47 | 54.00550 | -19.73048 | 35059 ft | 455 kts | 268° |
| 2026-05-07 13:48 | 54.00344 | -19.83836 | 35063 ft | 455 kts | 268° |
| 2026-05-07 13:48 | 54.00128 | -19.94569 | 35067 ft | 456 kts | 268° |
| 2026-05-07 13:49 | 53.99718 | -20.05331 | 35066 ft | 456 kts | 265° |
| 2026-05-07 13:49 | 53.99108 | -20.16084 | 35070 ft | 456 kts | 265° |
| 2026-05-07 13:50 | 53.98483 | -20.26823 | 35069 ft | 456 kts | 264° |
| 2026-05-07 13:50 | 53.97845 | -20.37589 | 35075 ft | 457 kts | 264° |
| 2026-05-07 13:51 | 53.97197 | -20.48357 | 35074 ft | 457 kts | 264° |
| 2026-05-07 13:51 | 53.96545 | -20.59041 | 35074 ft | 457 kts | 264° |
| 2026-05-07 13:52 | 53.95877 | -20.69804 | 35079 ft | 457 kts | 264° |
| 2026-05-07 13:52 | 53.95199 | -20.80575 | 35081 ft | 458 kts | 264° |
| 2026-05-07 13:53 | 53.94512 | -20.91334 | 35079 ft | 458 kts | 264° |
| 2026-05-07 13:53 | 53.93816 | -21.02093 | 35085 ft | 458 kts | 264° |
| 2026-05-07 13:54 | 53.93108 | -21.12870 | 35086 ft | 458 kts | 264° |
| 2026-05-07 13:54 | 53.92390 | -21.23646 | 35087 ft | 458 kts | 264° |
| 2026-05-07 13:55 | 53.91664 | -21.34409 | 35089 ft | 459 kts | 264° |
| 2026-05-07 13:55 | 53.91052 | -21.43359 | 35089 ft | 459 kts | 264° |
| 2026-05-07 13:56 | 53.90185 | -21.55875 | 35091 ft | 459 kts | 264° |
| 2026-05-07 13:56 | 53.89552 | -21.64900 | 35089 ft | 459 kts | 264° |
| 2026-05-07 13:57 | 53.88662 | -21.77416 | 35104 ft | 459 kts | 264° |
| 2026-05-07 13:57 | 53.88017 | -21.86368 | 35105 ft | 459 kts | 264° |
| 2026-05-07 13:58 | 53.87233 | -21.97135 | 35097 ft | 460 kts | 264° |
| 2026-05-07 13:58 | 53.86437 | -22.07917 | 35113 ft | 460 kts | 264° |
| 2026-05-07 13:59 | 53.85633 | -22.18682 | 35104 ft | 460 kts | 264° |
| 2026-05-07 13:59 | 53.84817 | -22.29463 | 35107 ft | 460 kts | 264° |
| 2026-05-07 14:00 | 53.83997 | -22.40175 | 35109 ft | 460 kts | 264° |
| 2026-05-07 14:00 | 53.83162 | -22.50948 | 35105 ft | 460 kts | 264° |
| 2026-05-07 14:01 | 53.82318 | -22.61721 | 35116 ft | 460 kts | 264° |
| 2026-05-07 14:01 | 53.81464 | -22.72486 | 35114 ft | 461 kts | 264° |
| 2026-05-07 14:02 | 53.80601 | -22.83240 | 35118 ft | 461 kts | 264° |
| 2026-05-07 14:02 | 53.79726 | -22.94018 | 35117 ft | 461 kts | 264° |
| 2026-05-07 14:03 | 53.78842 | -23.04783 | 35116 ft | 461 kts | 264° |
| 2026-05-07 14:03 | 53.77948 | -23.15544 | 35123 ft | 461 kts | 264° |
| 2026-05-07 14:04 | 53.77049 | -23.26245 | 35129 ft | 462 kts | 264° |
| 2026-05-07 14:04 | 53.76134 | -23.37021 | 35124 ft | 462 kts | 264° |
| 2026-05-07 14:05 | 53.75210 | -23.47784 | 35126 ft | 462 kts | 264° |
| 2026-05-07 14:05 | 53.74277 | -23.58538 | 35131 ft | 462 kts | 264° |
| 2026-05-07 14:06 | 53.73332 | -23.69304 | 35129 ft | 462 kts | 264° |
| 2026-05-07 14:06 | 53.72377 | -23.80077 | 35134 ft | 462 kts | 264° |
| 2026-05-07 14:07 | 53.71420 | -23.90757 | 35137 ft | 463 kts | 264° |
| 2026-05-07 14:07 | 53.70447 | -24.01511 | 35137 ft | 463 kts | 264° |
| 2026-05-07 14:08 | 53.69464 | -24.12257 | 35139 ft | 463 kts | 264° |
| 2026-05-07 14:08 | 53.68471 | -24.23002 | 35143 ft | 463 kts | 264° |
| 2026-05-07 14:09 | 53.67468 | -24.33750 | 35146 ft | 463 kts | 264° |
| 2026-05-07 14:09 | 53.66455 | -24.44493 | 35147 ft | 463 kts | 264° |
| 2026-05-07 14:10 | 53.65432 | -24.55236 | 35146 ft | 463 kts | 264° |
| 2026-05-07 14:10 | 53.64402 | -24.65955 | 35151 ft | 463 kts | 264° |
| 2026-05-07 14:11 | 53.63357 | -24.76712 | 35148 ft | 463 kts | 264° |
| 2026-05-07 14:11 | 53.62307 | -24.87424 | 35152 ft | 463 kts | 264° |
| 2026-05-07 14:12 | 53.61253 | -24.98070 | 35158 ft | 463 kts | 264° |
| 2026-05-07 14:12 | 53.60181 | -25.08800 | 35157 ft | 463 kts | 264° |
| 2026-05-07 14:13 | 53.59103 | -25.19484 | 35156 ft | 463 kts | 264° |
| 2026-05-07 14:13 | 53.58012 | -25.30201 | 35166 ft | 463 kts | 264° |
| 2026-05-07 14:14 | 53.56920 | -25.40832 | 35167 ft | 462 kts | 264° |
| 2026-05-07 14:14 | 53.55814 | -25.51495 | 35166 ft | 462 kts | 264° |
| 2026-05-07 14:15 | 53.54697 | -25.62168 | 35169 ft | 462 kts | 264° |
| 2026-05-07 14:15 | 53.53573 | -25.72821 | 35166 ft | 462 kts | 264° |
| 2026-05-07 14:16 | 53.52438 | -25.83473 | 35168 ft | 462 kts | 264° |
| 2026-05-07 14:16 | 53.51302 | -25.94039 | 35167 ft | 462 kts | 264° |
| 2026-05-07 14:17 | 53.50149 | -26.04675 | 35170 ft | 461 kts | 264° |
| 2026-05-07 14:17 | 53.48986 | -26.15309 | 35182 ft | 461 kts | 264° |
| 2026-05-07 14:18 | 53.47815 | -26.25924 | 35177 ft | 461 kts | 264° |
| 2026-05-07 14:18 | 53.46643 | -26.36461 | 35179 ft | 461 kts | 264° |
| 2026-05-07 14:19 | 53.45447 | -26.47124 | 35178 ft | 460 kts | 264° |
| 2026-05-07 14:19 | 53.44257 | -26.57639 | 35182 ft | 460 kts | 265° |
| 2026-05-07 14:20 | 53.43052 | -26.68203 | 35186 ft | 460 kts | 265° |
| 2026-05-07 14:20 | 53.41839 | -26.78741 | 35182 ft | 460 kts | 265° |
| 2026-05-07 14:21 | 53.40615 | -26.89287 | 35186 ft | 459 kts | 265° |
| 2026-05-07 14:21 | 53.39392 | -26.99748 | 35187 ft | 459 kts | 265° |
| 2026-05-07 14:22 | 53.38154 | -27.10252 | 35191 ft | 458 kts | 265° |
| 2026-05-07 14:22 | 53.36906 | -27.20750 | 35185 ft | 458 kts | 265° |
| 2026-05-07 14:23 | 53.35652 | -27.31226 | 35188 ft | 458 kts | 265° |
| 2026-05-07 14:23 | 53.34391 | -27.41670 | 35195 ft | 457 kts | 265° |
| 2026-05-07 14:24 | 53.33119 | -27.52123 | 35198 ft | 456 kts | 265° |
| 2026-05-07 14:24 | 53.31841 | -27.62542 | 35202 ft | 456 kts | 265° |
| 2026-05-07 14:25 | 53.30567 | -27.72856 | 35201 ft | 455 kts | 265° |
| 2026-05-07 14:25 | 53.29274 | -27.83239 | 35202 ft | 455 kts | 265° |
| 2026-05-07 14:26 | 53.27976 | -27.93594 | 35208 ft | 454 kts | 265° |
| 2026-05-07 14:26 | 53.26668 | -28.03946 | 35209 ft | 453 kts | 266° |
| 2026-05-07 14:27 | 53.25354 | -28.14259 | 35215 ft | 453 kts | 266° |
| 2026-05-07 14:27 | 53.24035 | -28.24549 | 35212 ft | 452 kts | 266° |
| 2026-05-07 14:28 | 53.22706 | -28.34836 | 35213 ft | 452 kts | 266° |
| 2026-05-07 14:28 | 53.21379 | -28.45031 | 35215 ft | 451 kts | 266° |
| 2026-05-07 14:29 | 53.20038 | -28.55269 | 35221 ft | 451 kts | 266° |
| 2026-05-07 14:29 | 53.18684 | -28.65525 | 35219 ft | 451 kts | 266° |
| 2026-05-07 14:30 | 53.17321 | -28.75781 | 35224 ft | 451 kts | 266° |
| 2026-05-07 14:30 | 53.15960 | -28.85945 | 35227 ft | 451 kts | 266° |
| 2026-05-07 14:31 | 53.14580 | -28.96173 | 35225 ft | 451 kts | 266° |
| 2026-05-07 14:31 | 53.13194 | -29.06384 | 35231 ft | 451 kts | 266° |
| 2026-05-07 14:32 | 53.11799 | -29.16591 | 35228 ft | 452 kts | 266° |
| 2026-05-07 14:32 | 53.10393 | -29.26803 | 35235 ft | 452 kts | 266° |
| 2026-05-07 14:33 | 53.08979 | -29.37002 | 35241 ft | 452 kts | 266° |
| 2026-05-07 14:33 | 53.07552 | -29.47225 | 35244 ft | 452 kts | 266° |
| 2026-05-07 14:34 | 53.06127 | -29.57358 | 35239 ft | 452 kts | 266° |
| 2026-05-07 14:34 | 53.04673 | -29.67627 | 35237 ft | 452 kts | 266° |
| 2026-05-07 14:35 | 53.03228 | -29.77757 | 35244 ft | 453 kts | 266° |
| 2026-05-07 14:35 | 53.01763 | -29.87947 | 35244 ft | 452 kts | 265° |
| 2026-05-07 14:36 | 53.00299 | -29.98135 | 35247 ft | 451 kts | 266° |
| 2026-05-07 14:36 | 52.99158 | -30.08343 | 35246 ft | 448 kts | 269° |
| 2026-05-07 14:37 | 52.98094 | -30.18536 | 35250 ft | 447 kts | 269° |
| 2026-05-07 14:37 | 52.96483 | -30.33768 | 35253 ft | 447 kts | 269° |
| 2026-05-07 14:38 | 52.95392 | -30.43953 | 35253 ft | 447 kts | 269° |
| 2026-05-07 14:38 | 52.94294 | -30.54119 | 35254 ft | 447 kts | 269° |
| 2026-05-07 14:39 | 52.93186 | -30.64284 | 35255 ft | 447 kts | 269° |
| 2026-05-07 14:39 | 52.92075 | -30.74399 | 35260 ft | 447 kts | 269° |
| 2026-05-07 14:40 | 52.90951 | -30.84546 | 35260 ft | 447 kts | 269° |
| 2026-05-07 14:40 | 52.89818 | -30.94687 | 35265 ft | 447 kts | 269° |
| 2026-05-07 14:41 | 52.88678 | -31.04818 | 35265 ft | 446 kts | 269° |
| 2026-05-07 14:41 | 52.87529 | -31.14936 | 35262 ft | 446 kts | 269° |
| 2026-05-07 14:42 | 52.86373 | -31.25041 | 35266 ft | 446 kts | 269° |
| 2026-05-07 14:42 | 52.85208 | -31.35145 | 35265 ft | 446 kts | 269° |
| 2026-05-07 14:43 | 52.84232 | -31.43550 | 35269 ft | 446 kts | 269° |
| 2026-05-07 14:43 | 52.83050 | -31.53655 | 35270 ft | 446 kts | 268° |
| 2026-05-07 14:44 | 52.81860 | -31.63752 | 35273 ft | 447 kts | 268° |
| 2026-05-07 14:44 | 52.80660 | -31.73847 | 35273 ft | 447 kts | 268° |
| 2026-05-07 14:45 | 52.79452 | -31.83943 | 35270 ft | 447 kts | 268° |
| 2026-05-07 14:45 | 52.78242 | -31.93966 | 35268 ft | 447 kts | 268° |
| 2026-05-07 14:46 | 52.77014 | -32.04069 | 35274 ft | 447 kts | 268° |
| 2026-05-07 14:46 | 52.75778 | -32.14170 | 35275 ft | 448 kts | 268° |
| 2026-05-07 14:47 | 52.74531 | -32.24271 | 35276 ft | 448 kts | 268° |
| 2026-05-07 14:47 | 52.73276 | -32.34367 | 35269 ft | 448 kts | 268° |
| 2026-05-07 14:48 | 52.72013 | -32.44455 | 35282 ft | 448 kts | 268° |
| 2026-05-07 14:48 | 52.70749 | -32.54473 | 35281 ft | 448 kts | 268° |
| 2026-05-07 14:49 | 52.69468 | -32.64554 | 35280 ft | 448 kts | 268° |
| 2026-05-07 14:49 | 52.68175 | -32.74658 | 35276 ft | 448 kts | 267° |
| 2026-05-07 14:50 | 52.66877 | -32.84728 | 35281 ft | 448 kts | 267° |
| 2026-05-07 14:50 | 52.65569 | -32.94800 | 35280 ft | 448 kts | 267° |
| 2026-05-07 14:51 | 52.64261 | -33.04800 | 35280 ft | 449 kts | 267° |
| 2026-05-07 14:51 | 52.62935 | -33.14870 | 35278 ft | 449 kts | 267° |
| 2026-05-07 14:52 | 52.61600 | -33.24938 | 35284 ft | 449 kts | 266° |
| 2026-05-07 14:52 | 52.60256 | -33.35001 | 35287 ft | 449 kts | 266° |
| 2026-05-07 14:53 | 52.58912 | -33.44995 | 35289 ft | 450 kts | 266° |
| 2026-05-07 14:53 | 52.57549 | -33.55064 | 35289 ft | 450 kts | 266° |
| 2026-05-07 14:54 | 52.56179 | -33.65111 | 35287 ft | 450 kts | 266° |
| 2026-05-07 14:54 | 52.54798 | -33.75170 | 35291 ft | 450 kts | 266° |
| 2026-05-07 14:55 | 52.53406 | -33.85243 | 35286 ft | 450 kts | 266° |
| 2026-05-07 14:55 | 52.52009 | -33.95283 | 35288 ft | 450 kts | 266° |
| 2026-05-07 14:56 | 52.50601 | -34.05332 | 35294 ft | 450 kts | 266° |
| 2026-05-07 14:56 | 52.49186 | -34.15368 | 35293 ft | 450 kts | 266° |
| 2026-05-07 14:57 | 52.47763 | -34.25391 | 35295 ft | 451 kts | 265° |
| 2026-05-07 14:57 | 52.46338 | -34.35365 | 35295 ft | 451 kts | 265° |
| 2026-05-07 14:58 | 52.44887 | -34.45453 | 35294 ft | 451 kts | 265° |
| 2026-05-07 14:58 | 52.43446 | -34.55409 | 35298 ft | 451 kts | 265° |
| 2026-05-07 14:59 | 52.41986 | -34.65427 | 35295 ft | 451 kts | 265° |
| 2026-05-07 14:59 | 52.40519 | -34.75433 | 35298 ft | 451 kts | 265° |
| 2026-05-07 15:00 | 52.39041 | -34.85443 | 35298 ft | 451 kts | 265° |
| 2026-05-07 15:00 | 52.37554 | -34.95456 | 35298 ft | 451 kts | 265° |
| 2026-05-07 15:01 | 52.36063 | -35.05432 | 35304 ft | 451 kts | 265° |
| 2026-05-07 15:01 | 52.34561 | -35.15415 | 35307 ft | 451 kts | 265° |
| 2026-05-07 15:02 | 52.33060 | -35.25335 | 35309 ft | 451 kts | 264° |
| 2026-05-07 15:02 | 52.31543 | -35.35299 | 35301 ft | 451 kts | 264° |
| 2026-05-07 15:03 | 52.30016 | -35.45260 | 35302 ft | 451 kts | 264° |
| 2026-05-07 15:03 | 52.28482 | -35.55213 | 35301 ft | 451 kts | 264° |
| 2026-05-07 15:04 | 52.26950 | -35.65084 | 35301 ft | 451 kts | 264° |
| 2026-05-07 15:04 | 52.25400 | -35.75015 | 35305 ft | 451 kts | 264° |
| 2026-05-07 15:05 | 52.23840 | -35.84951 | 35306 ft | 451 kts | 264° |
| 2026-05-07 15:05 | 52.22273 | -35.94869 | 35305 ft | 451 kts | 263° |
| 2026-05-07 15:06 | 52.20695 | -36.04797 | 35304 ft | 451 kts | 263° |
| 2026-05-07 15:06 | 52.19111 | -36.14700 | 35305 ft | 451 kts | 263° |
| 2026-05-07 15:07 | 52.17528 | -36.24546 | 35302 ft | 451 kts | 263° |
| 2026-05-07 15:07 | 52.15929 | -36.34430 | 35304 ft | 451 kts | 263° |
| 2026-05-07 15:08 | 52.14320 | -36.44318 | 35307 ft | 451 kts | 263° |
| 2026-05-07 15:08 | 52.12703 | -36.54196 | 35306 ft | 451 kts | 263° |
| 2026-05-07 15:09 | 52.11078 | -36.64067 | 35304 ft | 451 kts | 263° |
| 2026-05-07 15:09 | 52.09442 | -36.73944 | 35303 ft | 451 kts | 262° |
| 2026-05-07 15:10 | 52.07792 | -36.83849 | 35309 ft | 451 kts | 262° |
| 2026-05-07 15:10 | 52.06140 | -36.93711 | 35310 ft | 452 kts | 262° |
| 2026-05-07 15:11 | 52.04478 | -37.03574 | 35308 ft | 452 kts | 262° |
| 2026-05-07 15:11 | 52.02808 | -37.13429 | 35313 ft | 452 kts | 262° |
| 2026-05-07 15:12 | 52.01132 | -37.23267 | 35312 ft | 452 kts | 262° |
| 2026-05-07 15:12 | 51.99444 | -37.33113 | 35308 ft | 452 kts | 262° |
| 2026-05-07 15:13 | 51.97763 | -37.42866 | 35306 ft | 452 kts | 262° |
| 2026-05-07 15:13 | 51.96061 | -37.52693 | 35309 ft | 452 kts | 261° |
| 2026-05-07 15:14 | 51.94348 | -37.62519 | 35310 ft | 452 kts | 261° |
| 2026-05-07 15:14 | 51.92630 | -37.72324 | 35309 ft | 452 kts | 261° |
| 2026-05-07 15:15 | 51.90902 | -37.82134 | 35306 ft | 452 kts | 261° |
| 2026-05-07 15:15 | 51.89166 | -37.91932 | 35305 ft | 452 kts | 261° |
| 2026-05-07 15:16 | 51.87418 | -38.01745 | 35306 ft | 452 kts | 261° |
| 2026-05-07 15:16 | 51.85676 | -38.11476 | 35306 ft | 452 kts | 261° |
| 2026-05-07 15:17 | 51.83917 | -38.21243 | 35302 ft | 452 kts | 260° |
| 2026-05-07 15:17 | 51.82145 | -38.31031 | 35303 ft | 452 kts | 260° |
| 2026-05-07 15:18 | 51.80379 | -38.40735 | 35304 ft | 452 kts | 260° |
| 2026-05-07 15:18 | 51.78592 | -38.50500 | 35296 ft | 452 kts | 260° |
| 2026-05-07 15:19 | 51.76798 | -38.60255 | 35297 ft | 452 kts | 259° |
| 2026-05-07 15:19 | 51.74997 | -38.69992 | 35297 ft | 452 kts | 259° |
| 2026-05-07 15:20 | 51.73191 | -38.79710 | 35296 ft | 452 kts | 259° |
| 2026-05-07 15:20 | 51.71373 | -38.89440 | 35301 ft | 452 kts | 259° |
| 2026-05-07 15:21 | 51.69556 | -38.99108 | 35302 ft | 452 kts | 259° |
| 2026-05-07 15:21 | 51.67725 | -39.08804 | 35300 ft | 452 kts | 259° |
| 2026-05-07 15:22 | 51.65884 | -39.18502 | 35291 ft | 452 kts | 258° |
| 2026-05-07 15:22 | 51.64034 | -39.28197 | 35296 ft | 452 kts | 258° |
| 2026-05-07 15:23 | 51.62175 | -39.37891 | 35302 ft | 452 kts | 258° |
| 2026-05-07 15:23 | 51.60309 | -39.47566 | 35296 ft | 452 kts | 258° |
| 2026-05-07 15:24 | 51.58444 | -39.57191 | 35295 ft | 453 kts | 258° |
| 2026-05-07 15:24 | 51.56556 | -39.66878 | 35290 ft | 453 kts | 258° |
| 2026-05-07 15:25 | 51.54660 | -39.76552 | 35288 ft | 453 kts | 258° |
| 2026-05-07 15:25 | 51.52750 | -39.86242 | 35292 ft | 454 kts | 257° |
| 2026-05-07 15:26 | 51.50866 | -39.95920 | 35290 ft | 453 kts | 259° |
| 2026-05-07 15:26 | 51.49442 | -40.05746 | 35290 ft | 449 kts | 264° |
| 2026-05-07 15:27 | 51.48402 | -40.15650 | 35286 ft | 449 kts | 265° |
| 2026-05-07 15:27 | 51.47370 | -40.25490 | 35291 ft | 449 kts | 265° |
| 2026-05-07 15:28 | 51.46319 | -40.35403 | 35289 ft | 450 kts | 265° |
| 2026-05-07 15:28 | 51.45260 | -40.45307 | 35287 ft | 450 kts | 264° |
| 2026-05-07 15:29 | 51.44189 | -40.55244 | 35282 ft | 451 kts | 264° |
| 2026-05-07 15:29 | 51.43116 | -40.65103 | 35276 ft | 451 kts | 264° |
| 2026-05-07 15:30 | 51.42028 | -40.75027 | 35277 ft | 452 kts | 264° |
| 2026-05-07 15:30 | 51.40930 | -40.84959 | 35274 ft | 452 kts | 264° |
| 2026-05-07 15:31 | 51.39823 | -40.94885 | 35285 ft | 452 kts | 264° |
| 2026-05-07 15:31 | 51.38705 | -41.04843 | 35284 ft | 453 kts | 264° |
| 2026-05-07 15:32 | 51.37578 | -41.14790 | 35284 ft | 453 kts | 264° |
| 2026-05-07 15:32 | 51.36448 | -41.24690 | 35277 ft | 453 kts | 263° |
| 2026-05-07 15:33 | 51.35489 | -41.33027 | 35272 ft | 454 kts | 263° |
| 2026-05-07 15:33 | 51.34339 | -41.42956 | 35271 ft | 454 kts | 263° |
| 2026-05-07 15:34 | 51.28393 | -41.93136 | 35268 ft | 455 kts | 263° |
| 2026-05-07 15:34 | 51.22926 | -42.37630 | 35267 ft | 457 kts | 262° |
| 2026-05-07 15:35 | 51.19274 | -42.66544 | 35262 ft | 457 kts | 262° |
| 2026-05-07 15:35 | 51.12689 | -43.17233 | 35262 ft | 458 kts | 261° |
| 2026-05-07 15:36 | 51.05991 | -43.66990 | 35260 ft | 459 kts | 260° |
| 2026-05-07 15:36 | 50.98960 | -44.17470 | 35257 ft | 459 kts | 259° |
| 2026-05-07 15:37 | 50.91786 | -44.67281 | 35259 ft | 459 kts | 259° |
| 2026-05-07 15:37 | 50.84395 | -45.16984 | 35258 ft | 459 kts | 258° |
| 2026-05-07 15:38 | 50.76761 | -45.66734 | 35258 ft | 459 kts | 257° |
| 2026-05-07 15:38 | 50.68993 | -46.15836 | 35254 ft | 458 kts | 256° |
| 2026-05-07 15:39 | 50.61129 | -46.64117 | 35251 ft | 458 kts | 256° |
| 2026-05-07 15:39 | 50.53064 | -47.12243 | 35244 ft | 455 kts | 255° |
| 2026-05-07 15:40 | 50.44918 | -47.59531 | 35243 ft | 452 kts | 254° |
| 2026-05-07 15:40 | 50.36481 | -48.07216 | 35243 ft | 449 kts | 253° |
| 2026-05-07 15:41 | 50.27845 | -48.54753 | 35236 ft | 447 kts | 253° |
| 2026-05-07 15:41 | 50.19516 | -48.99460 | 35232 ft | 445 kts | 252° |
| 2026-05-07 15:42 | 50.17774 | -49.08677 | 35236 ft | 444 kts | 252° |
| 2026-05-07 15:42 | 50.16016 | -49.17921 | 35233 ft | 443 kts | 252° |
| 2026-05-07 15:43 | 50.14253 | -49.27148 | 35233 ft | 443 kts | 252° |
| 2026-05-07 15:43 | 50.12487 | -49.36349 | 35232 ft | 442 kts | 252° |
| 2026-05-07 15:44 | 50.10716 | -49.45537 | 35232 ft | 441 kts | 251° |
| 2026-05-07 15:44 | 50.08941 | -49.54696 | 35231 ft | 441 kts | 251° |
| 2026-05-07 15:45 | 50.07173 | -49.63774 | 35235 ft | 440 kts | 251° |
| 2026-05-07 15:45 | 50.05374 | -49.72964 | 35232 ft | 440 kts | 251° |
| 2026-05-07 15:46 | 50.02693 | -49.86568 | 35227 ft | 439 kts | 251° |
| 2026-05-07 15:47 | 50.00893 | -49.95646 | 35227 ft | 439 kts | 251° |
| 2026-05-07 15:47 | 49.98917 | -50.04651 | 35225 ft | 438 kts | 248° |
| 2026-05-07 15:48 | 49.96795 | -50.13538 | 35224 ft | 438 kts | 248° |
| 2026-05-07 15:48 | 49.94677 | -50.22353 | 35226 ft | 437 kts | 248° |
| 2026-05-07 15:49 | 49.92536 | -50.31219 | 35222 ft | 437 kts | 247° |
| 2026-05-07 15:49 | 49.90387 | -50.40071 | 35222 ft | 437 kts | 247° |
| 2026-05-07 15:50 | 49.88237 | -50.48891 | 35219 ft | 436 kts | 247° |
| 2026-05-07 15:50 | 49.86070 | -50.57743 | 35398 ft | 440 kts | 247° |
| 2026-05-07 15:50 | 49.84999 | -50.62106 | 35872 ft | 436 kts | 247° |
| 2026-05-07 15:51 | 49.83920 | -50.66489 | 36170 ft | 433 kts | 247° |
| 2026-05-07 15:51 | 49.81772 | -50.75197 | 36212 ft | 431 kts | 247° |
| 2026-05-07 15:52 | 49.79627 | -50.83861 | 36208 ft | 431 kts | 246° |
| 2026-05-07 15:52 | 49.77476 | -50.92514 | 36209 ft | 430 kts | 246° |
| 2026-05-07 15:53 | 49.75316 | -51.01165 | 36207 ft | 430 kts | 246° |
| 2026-05-07 15:53 | 49.73153 | -51.09796 | 36189 ft | 429 kts | 246° |
| 2026-05-07 15:54 | 49.70983 | -51.18420 | 36191 ft | 429 kts | 246° |
| 2026-05-07 15:54 | 49.68814 | -51.27010 | 36204 ft | 429 kts | 246° |
| 2026-05-07 15:55 | 49.66634 | -51.35608 | 36184 ft | 429 kts | 246° |
| 2026-05-07 15:55 | 49.64464 | -51.44132 | 36191 ft | 428 kts | 245° |
| 2026-05-07 15:56 | 49.62274 | -51.52703 | 36189 ft | 428 kts | 245° |
| 2026-05-07 15:56 | 49.60081 | -51.61254 | 36187 ft | 428 kts | 245° |
| 2026-05-07 15:57 | 49.57879 | -51.69801 | 36185 ft | 428 kts | 245° |
| 2026-05-07 15:57 | 49.55672 | -51.78338 | 36179 ft | 428 kts | 245° |
| 2026-05-07 15:58 | 49.53466 | -51.86829 | 36173 ft | 428 kts | 245° |
| 2026-05-07 15:58 | 49.51247 | -51.95341 | 36177 ft | 428 kts | 244° |
| 2026-05-07 15:59 | 49.48920 | -52.03782 | 36180 ft | 427 kts | 242° |
| 2026-05-07 15:59 | 49.46479 | -52.12122 | 36172 ft | 427 kts | 242° |
| 2026-05-07 16:00 | 49.44028 | -52.20455 | 36169 ft | 427 kts | 242° |
| 2026-05-07 16:00 | 49.41587 | -52.28718 | 36162 ft | 426 kts | 242° |
| 2026-05-07 16:01 | 49.39127 | -52.37017 | 36166 ft | 426 kts | 242° |
| 2026-05-07 16:01 | 49.36659 | -52.45300 | 36159 ft | 426 kts | 242° |
| 2026-05-07 16:02 | 49.34183 | -52.53584 | 36158 ft | 425 kts | 242° |
| 2026-05-07 16:02 | 49.31703 | -52.61845 | 36153 ft | 425 kts | 242° |
| 2026-05-07 16:03 | 49.29235 | -52.70041 | 36146 ft | 425 kts | 241° |
| 2026-05-07 16:03 | 49.26748 | -52.78271 | 36143 ft | 425 kts | 241° |
| 2026-05-07 16:04 | 49.24257 | -52.86492 | 36139 ft | 425 kts | 241° |
| 2026-05-07 16:04 | 49.21759 | -52.94700 | 36139 ft | 424 kts | 241° |
| 2026-05-07 16:05 | 49.19260 | -53.02890 | 36134 ft | 424 kts | 241° |
| 2026-05-07 16:05 | 49.16758 | -53.11060 | 36131 ft | 424 kts | 241° |
| 2026-05-07 16:06 | 49.14250 | -53.19225 | 36125 ft | 423 kts | 241° |
| 2026-05-07 16:06 | 49.11753 | -53.27324 | 36120 ft | 424 kts | 241° |
| 2026-05-07 16:07 | 49.09219 | -53.35520 | 36121 ft | 423 kts | 241° |
| 2026-05-07 16:07 | 49.06710 | -53.43606 | 36121 ft | 423 kts | 241° |
| 2026-05-07 16:08 | 49.04181 | -53.51734 | 36119 ft | 423 kts | 241° |
| 2026-05-07 16:08 | 49.01645 | -53.59855 | 36115 ft | 424 kts | 241° |
| 2026-05-07 16:09 | 48.99104 | -53.67965 | 36112 ft | 424 kts | 241° |
| 2026-05-07 16:09 | 48.96556 | -53.76069 | 36116 ft | 424 kts | 241° |
| 2026-05-07 16:10 | 48.93995 | -53.84191 | 36116 ft | 424 kts | 241° |
| 2026-05-07 16:10 | 48.91449 | -53.92240 | 36095 ft | 424 kts | 241° |
| 2026-05-07 16:11 | 48.88878 | -54.00341 | 36109 ft | 425 kts | 241° |
| 2026-05-07 16:11 | 48.86304 | -54.08422 | 36095 ft | 425 kts | 241° |
| 2026-05-07 16:12 | 48.83721 | -54.16509 | 36090 ft | 425 kts | 241° |
| 2026-05-07 16:12 | 48.81130 | -54.24592 | 36092 ft | 425 kts | 241° |
| 2026-05-07 16:13 | 48.78536 | -54.32662 | 36091 ft | 425 kts | 241° |
| 2026-05-07 16:13 | 48.75945 | -54.40692 | 36087 ft | 426 kts | 241° |
| 2026-05-07 16:14 | 48.73333 | -54.48766 | 36067 ft | 426 kts | 241° |
| 2026-05-07 16:14 | 48.70715 | -54.56830 | 36070 ft | 426 kts | 241° |
| 2026-05-07 16:15 | 48.68090 | -54.64894 | 36073 ft | 427 kts | 241° |
| 2026-05-07 16:15 | 48.65454 | -54.72960 | 36071 ft | 427 kts | 241° |
| 2026-05-07 16:16 | 48.62813 | -54.81021 | 36065 ft | 427 kts | 241° |
| 2026-05-07 16:16 | 48.60162 | -54.89086 | 36055 ft | 428 kts | 241° |
| 2026-05-07 16:17 | 48.57505 | -54.97144 | 36049 ft | 428 kts | 241° |
| 2026-05-07 16:17 | 48.54853 | -55.05155 | 36041 ft | 428 kts | 241° |
| 2026-05-07 16:18 | 48.52181 | -55.13209 | 36034 ft | 429 kts | 241° |
| 2026-05-07 16:18 | 48.49501 | -55.21260 | 36026 ft | 429 kts | 241° |
| 2026-05-07 16:19 | 48.46813 | -55.29307 | 36024 ft | 429 kts | 241° |
| 2026-05-07 16:19 | 48.44114 | -55.37361 | 36018 ft | 429 kts | 241° |
| 2026-05-07 16:20 | 48.41414 | -55.45394 | 36006 ft | 431 kts | 241° |
| 2026-05-07 16:20 | 48.38698 | -55.53451 | 36011 ft | 430 kts | 241° |
| 2026-05-07 16:21 | 48.35986 | -55.61471 | 36000 ft | 430 kts | 241° |
| 2026-05-07 16:21 | 48.33250 | -55.69531 | 35996 ft | 429 kts | 241° |
| 2026-05-07 16:22 | 48.30524 | -55.77541 | 35990 ft | 430 kts | 241° |
| 2026-05-07 16:22 | 48.28255 | -55.84188 | 35985 ft | 430 kts | 241° |
| 2026-05-07 16:23 | 48.25518 | -55.92186 | 35979 ft | 430 kts | 241° |
| 2026-05-07 16:23 | 48.22778 | -56.00166 | 35975 ft | 430 kts | 241° |
| 2026-05-07 16:24 | 48.20032 | -56.08138 | 35970 ft | 430 kts | 241° |
| 2026-05-07 16:24 | 48.17280 | -56.16105 | 35966 ft | 430 kts | 241° |
| 2026-05-07 16:25 | 48.14526 | -56.24054 | 35962 ft | 429 kts | 241° |
| 2026-05-07 16:25 | 48.11763 | -56.32000 | 35958 ft | 429 kts | 241° |
| 2026-05-07 16:26 | 48.09016 | -56.39882 | 35955 ft | 429 kts | 241° |
| 2026-05-07 16:26 | 48.06250 | -56.47793 | 35959 ft | 428 kts | 241° |
| 2026-05-07 16:27 | 48.03480 | -56.55691 | 35963 ft | 428 kts | 242° |
| 2026-05-07 16:27 | 48.00702 | -56.63586 | 35969 ft | 428 kts | 242° |
| 2026-05-07 16:28 | 47.97923 | -56.71463 | 35978 ft | 428 kts | 242° |
| 2026-05-07 16:28 | 47.95133 | -56.79343 | 35987 ft | 428 kts | 242° |
| 2026-05-07 16:29 | 47.92343 | -56.87206 | 35996 ft | 428 kts | 242° |
| 2026-05-07 16:29 | 47.89543 | -56.95066 | 36000 ft | 429 kts | 242° |
| 2026-05-07 16:30 | 47.86754 | -57.02876 | 36010 ft | 429 kts | 242° |
| 2026-05-07 16:30 | 47.83935 | -57.10743 | 36017 ft | 430 kts | 242° |
| 2026-05-07 16:31 | 47.81114 | -57.18597 | 36015 ft | 430 kts | 242° |
| 2026-05-07 16:31 | 47.78278 | -57.26465 | 36015 ft | 431 kts | 242° |
| 2026-05-07 16:32 | 47.75436 | -57.34328 | 36016 ft | 431 kts | 242° |
| 2026-05-07 16:32 | 47.72589 | -57.42180 | 36013 ft | 431 kts | 242° |
| 2026-05-07 16:33 | 47.69739 | -57.50020 | 36005 ft | 430 kts | 242° |
| 2026-05-07 16:33 | 47.66888 | -57.57836 | 36001 ft | 430 kts | 242° |
| 2026-05-07 16:34 | 47.64057 | -57.65580 | 35996 ft | 429 kts | 242° |
| 2026-05-07 16:34 | 47.61205 | -57.73356 | 35995 ft | 428 kts | 242° |
| 2026-05-07 16:35 | 47.58346 | -57.81129 | 35990 ft | 427 kts | 242° |
| 2026-05-07 16:35 | 47.55494 | -57.88858 | 35982 ft | 427 kts | 242° |
| 2026-05-07 16:36 | 47.52640 | -57.96573 | 35974 ft | 426 kts | 242° |
| 2026-05-07 16:36 | 47.49784 | -58.04268 | 35968 ft | 426 kts | 242° |
| 2026-05-07 16:37 | 47.46924 | -58.11951 | 35957 ft | 425 kts | 242° |
| 2026-05-07 16:37 | 47.44085 | -58.19554 | 35951 ft | 425 kts | 242° |
| 2026-05-07 16:38 | 47.41220 | -58.27209 | 35944 ft | 424 kts | 242° |
| 2026-05-07 16:38 | 47.38352 | -58.34848 | 35937 ft | 424 kts | 242° |
| 2026-05-07 16:39 | 47.35481 | -58.42475 | 35937 ft | 424 kts | 242° |
| 2026-05-07 16:39 | 47.32613 | -58.50072 | 35930 ft | 424 kts | 242° |
| 2026-05-07 16:40 | 47.29736 | -58.57672 | 35920 ft | 423 kts | 242° |
| 2026-05-07 16:40 | 47.26859 | -58.65247 | 35915 ft | 423 kts | 242° |
| 2026-05-07 16:41 | 47.23982 | -58.72805 | 35906 ft | 422 kts | 242° |
| 2026-05-07 16:41 | 47.21101 | -58.80350 | 35902 ft | 422 kts | 242° |
| 2026-05-07 16:42 | 47.18236 | -58.87833 | 35895 ft | 422 kts | 242° |
| 2026-05-07 16:42 | 47.15343 | -58.95367 | 35884 ft | 422 kts | 242° |
| 2026-05-07 16:43 | 47.12447 | -59.02889 | 35884 ft | 422 kts | 242° |
| 2026-05-07 16:43 | 47.09544 | -59.10408 | 35875 ft | 423 kts | 242° |
| 2026-05-07 16:44 | 47.06630 | -59.17933 | 35866 ft | 423 kts | 242° |
| 2026-05-07 16:44 | 47.03717 | -59.25437 | 35855 ft | 424 kts | 242° |
| 2026-05-07 16:45 | 47.00807 | -59.32912 | 35847 ft | 425 kts | 242° |
| 2026-05-07 16:45 | 46.97855 | -59.40471 | 35849 ft | 426 kts | 242° |
| 2026-05-07 16:46 | 46.94902 | -59.48014 | 35841 ft | 426 kts | 242° |
| 2026-05-07 16:46 | 46.91941 | -59.55555 | 35832 ft | 427 kts | 242° |
| 2026-05-07 16:47 | 46.88967 | -59.63108 | 35834 ft | 428 kts | 242° |
| 2026-05-07 16:47 | 46.85987 | -59.70654 | 35820 ft | 428 kts | 242° |
| 2026-05-07 16:48 | 46.83016 | -59.78160 | 35820 ft | 428 kts | 242° |
| 2026-05-07 16:48 | 46.80022 | -59.85701 | 35817 ft | 429 kts | 242° |
| 2026-05-07 16:49 | 46.77024 | -59.93232 | 35808 ft | 428 kts | 242° |
| 2026-05-07 16:49 | 46.74022 | -60.00754 | 35816 ft | 429 kts | 242° |
| 2026-05-07 16:50 | 46.71012 | -60.08273 | 35794 ft | 429 kts | 242° |
| 2026-05-07 16:50 | 46.67994 | -60.15791 | 35798 ft | 429 kts | 242° |
| 2026-05-07 16:51 | 46.64971 | -60.23304 | 35794 ft | 429 kts | 242° |
| 2026-05-07 16:51 | 46.61941 | -60.30809 | 35793 ft | 430 kts | 242° |
| 2026-05-07 16:52 | 46.58918 | -60.38280 | 35785 ft | 430 kts | 242° |
| 2026-05-07 16:52 | 46.55866 | -60.45802 | 35780 ft | 431 kts | 242° |
| 2026-05-07 16:53 | 46.52812 | -60.53308 | 35780 ft | 431 kts | 242° |
| 2026-05-07 16:53 | 46.49750 | -60.60813 | 35775 ft | 431 kts | 242° |
| 2026-05-07 16:54 | 46.46678 | -60.68322 | 35773 ft | 431 kts | 242° |
| 2026-05-07 16:54 | 46.43604 | -60.75813 | 35768 ft | 432 kts | 242° |
| 2026-05-07 16:55 | 46.40540 | -60.83262 | 35766 ft | 432 kts | 242° |
| 2026-05-07 16:55 | 46.37452 | -60.90747 | 35761 ft | 432 kts | 242° |
| 2026-05-07 16:56 | 46.34362 | -60.98217 | 35752 ft | 432 kts | 242° |
| 2026-05-07 16:56 | 46.29728 | -61.09384 | 35757 ft | 431 kts | 241° |
| 2026-05-07 16:57 | 46.26625 | -61.16835 | 35752 ft | 432 kts | 241° |
| 2026-05-07 16:57 | 46.23521 | -61.24269 | 35750 ft | 431 kts | 241° |
| 2026-05-07 16:58 | 46.20434 | -61.31642 | 35745 ft | 432 kts | 241° |
| 2026-05-07 16:58 | 46.17317 | -61.39069 | 35743 ft | 431 kts | 241° |
| 2026-05-07 16:59 | 46.14191 | -61.46494 | 35738 ft | 431 kts | 241° |
| 2026-05-07 16:59 | 46.11070 | -61.53890 | 35742 ft | 431 kts | 241° |
| 2026-05-07 17:00 | 46.07960 | -61.61239 | 35733 ft | 431 kts | 241° |
| 2026-05-07 17:00 | 46.04829 | -61.68619 | 35741 ft | 431 kts | 241° |
| 2026-05-07 17:01 | 46.01688 | -61.76004 | 35742 ft | 431 kts | 241° |
| 2026-05-07 17:01 | 45.98552 | -61.83358 | 35745 ft | 431 kts | 241° |
| 2026-05-07 17:02 | 45.95405 | -61.90717 | 35741 ft | 431 kts | 241° |
| 2026-05-07 17:02 | 45.92262 | -61.98047 | 35740 ft | 430 kts | 241° |
| 2026-05-07 17:03 | 45.89132 | -62.05329 | 35738 ft | 430 kts | 241° |
| 2026-05-07 17:03 | 45.85982 | -62.12635 | 35731 ft | 430 kts | 241° |
| 2026-05-07 17:04 | 45.82830 | -62.19931 | 35740 ft | 429 kts | 240° |
| 2026-05-07 17:04 | 45.79679 | -62.27203 | 35724 ft | 429 kts | 240° |
| 2026-05-07 17:05 | 45.76522 | -62.34472 | 35730 ft | 429 kts | 240° |
| 2026-05-07 17:05 | 45.73361 | -62.41728 | 35719 ft | 428 kts | 240° |
| 2026-05-07 17:06 | 45.70201 | -62.48966 | 35722 ft | 428 kts | 240° |
| 2026-05-07 17:06 | 45.67063 | -62.56135 | 35718 ft | 427 kts | 240° |
| 2026-05-07 17:07 | 45.63902 | -62.63337 | 35718 ft | 426 kts | 240° |
| 2026-05-07 17:07 | 45.60739 | -62.70524 | 35710 ft | 426 kts | 240° |
| 2026-05-07 17:08 | 45.57576 | -62.77694 | 35711 ft | 426 kts | 240° |
| 2026-05-07 17:08 | 45.54411 | -62.84849 | 35707 ft | 425 kts | 240° |
| 2026-05-07 17:09 | 45.51780 | -62.90785 | 35709 ft | 425 kts | 240° |
| 2026-05-07 17:09 | 45.48616 | -62.97907 | 35706 ft | 425 kts | 240° |
| 2026-05-07 17:10 | 45.44913 | -63.06217 | 35712 ft | 424 kts | 240° |
| 2026-05-07 17:10 | 45.41762 | -63.13269 | 35711 ft | 424 kts | 240° |
| 2026-05-07 17:11 | 45.39128 | -63.19152 | 35713 ft | 423 kts | 240° |
| 2026-05-07 17:11 | 45.35939 | -63.26258 | 35716 ft | 422 kts | 240° |
| 2026-05-07 17:12 | 45.32799 | -63.33239 | 35723 ft | 421 kts | 240° |
| 2026-05-07 17:12 | 45.29632 | -63.40261 | 35717 ft | 421 kts | 240° |
| 2026-05-07 17:13 | 45.26466 | -63.47263 | 35727 ft | 420 kts | 240° |
| 2026-05-07 17:13 | 45.23303 | -63.54241 | 35721 ft | 419 kts | 240° |
| 2026-05-07 17:14 | 45.20157 | -63.61166 | 35721 ft | 419 kts | 240° |
| 2026-05-07 17:14 | 45.16990 | -63.68118 | 35709 ft | 418 kts | 240° |
| 2026-05-07 17:15 | 45.13824 | -63.75054 | 35708 ft | 418 kts | 240° |
| 2026-05-07 17:15 | 45.10662 | -63.81962 | 35711 ft | 417 kts | 240° |
| 2026-05-07 17:16 | 45.07494 | -63.88867 | 35711 ft | 417 kts | 240° |
| 2026-05-07 17:16 | 45.04328 | -63.95750 | 35702 ft | 416 kts | 240° |
| 2026-05-07 17:17 | 45.01161 | -64.02621 | 35705 ft | 416 kts | 240° |
| 2026-05-07 17:17 | 44.98095 | -64.09256 | 35699 ft | 415 kts | 240° |
| 2026-05-07 17:18 | 44.94932 | -64.16085 | 35699 ft | 415 kts | 240° |
| 2026-05-07 17:18 | 44.91758 | -64.22919 | 35697 ft | 414 kts | 240° |
| 2026-05-07 17:19 | 44.88594 | -64.29717 | 35687 ft | 413 kts | 240° |
| 2026-05-07 17:19 | 44.85435 | -64.36489 | 35703 ft | 413 kts | 240° |
| 2026-05-07 17:20 | 44.82298 | -64.43198 | 35694 ft | 412 kts | 239° |
| 2026-05-07 17:20 | 44.79135 | -64.49946 | 35696 ft | 411 kts | 239° |
| 2026-05-07 17:21 | 44.75969 | -64.56684 | 35705 ft | 411 kts | 239° |
| 2026-05-07 17:21 | 44.72794 | -64.63425 | 35705 ft | 410 kts | 239° |
| 2026-05-07 17:22 | 44.69644 | -64.70100 | 35708 ft | 409 kts | 239° |
| 2026-05-07 17:22 | 44.66513 | -64.76718 | 35707 ft | 408 kts | 239° |
| 2026-05-07 17:23 | 44.63361 | -64.83365 | 35713 ft | 407 kts | 239° |
| 2026-05-07 17:23 | 44.60212 | -64.89989 | 35714 ft | 407 kts | 239° |
| 2026-05-07 17:24 | 44.57066 | -64.96591 | 35715 ft | 406 kts | 239° |
| 2026-05-07 17:24 | 44.53920 | -65.03181 | 35713 ft | 405 kts | 239° |
| 2026-05-07 17:25 | 44.50796 | -65.09709 | 35717 ft | 404 kts | 239° |
| 2026-05-07 17:25 | 44.47657 | -65.16252 | 35714 ft | 404 kts | 239° |
| 2026-05-07 17:26 | 44.44519 | -65.22777 | 35719 ft | 403 kts | 239° |
| 2026-05-07 17:26 | 44.41389 | -65.29274 | 35718 ft | 402 kts | 239° |
| 2026-05-07 17:27 | 44.38255 | -65.35763 | 35721 ft | 401 kts | 239° |
| 2026-05-07 17:27 | 44.35126 | -65.42226 | 35718 ft | 400 kts | 239° |
| 2026-05-07 17:28 | 44.32001 | -65.48670 | 35724 ft | 399 kts | 239° |
| 2026-05-07 17:28 | 44.28902 | -65.55042 | 35720 ft | 398 kts | 239° |
| 2026-05-07 17:29 | 44.27366 | -65.58196 | 36074 ft | 381 kts | 238° |
| 2026-05-07 17:29 | 44.25888 | -65.61210 | 35754 ft | 372 kts | 239° |
| 2026-05-07 17:29 | 44.24460 | -65.64132 | 35753 ft | 358 kts | 239° |
| 2026-05-07 17:29 | 44.23055 | -65.67010 | 35737 ft | 359 kts | 239° |
| 2026-05-07 17:30 | 44.20238 | -65.72778 | 35727 ft | 359 kts | 239° |
| 2026-05-07 17:30 | 44.17416 | -65.78539 | 35728 ft | 359 kts | 239° |
| 2026-05-07 17:31 | 44.14609 | -65.84255 | 35729 ft | 359 kts | 239° |
| 2026-05-07 17:31 | 44.11786 | -65.89993 | 35729 ft | 359 kts | 239° |
| 2026-05-07 17:32 | 44.08963 | -65.95718 | 35729 ft | 358 kts | 239° |
| 2026-05-07 17:32 | 44.06142 | -66.01429 | 35735 ft | 358 kts | 239° |
| 2026-05-07 17:33 | 44.03318 | -66.07132 | 35732 ft | 357 kts | 239° |
| 2026-05-07 17:33 | 44.00491 | -66.12832 | 35738 ft | 357 kts | 239° |
| 2026-05-07 17:34 | 43.97668 | -66.18512 | 35746 ft | 357 kts | 239° |
| 2026-05-07 17:34 | 43.94864 | -66.24142 | 35732 ft | 356 kts | 239° |
| 2026-05-07 17:35 | 43.92041 | -66.29799 | 35729 ft | 356 kts | 239° |
| 2026-05-07 17:35 | 43.89218 | -66.35447 | 35739 ft | 355 kts | 239° |
| 2026-05-07 17:36 | 43.86394 | -66.41083 | 35733 ft | 355 kts | 239° |
| 2026-05-07 17:36 | 43.83570 | -66.46709 | 35735 ft | 355 kts | 239° |
| 2026-05-07 17:37 | 43.80744 | -66.52330 | 35736 ft | 354 kts | 239° |
| 2026-05-07 17:37 | 43.77938 | -66.57898 | 35740 ft | 354 kts | 239° |
| 2026-05-07 17:38 | 43.75113 | -66.63493 | 35738 ft | 354 kts | 239° |
| 2026-05-07 17:38 | 43.72291 | -66.69070 | 35755 ft | 354 kts | 239° |
| 2026-05-07 17:39 | 43.69469 | -66.74634 | 35742 ft | 353 kts | 239° |
| 2026-05-07 17:39 | 43.66639 | -66.80200 | 35757 ft | 353 kts | 239° |
| 2026-05-07 17:40 | 43.63811 | -66.85752 | 35754 ft | 353 kts | 239° |
| 2026-05-07 17:40 | 43.60987 | -66.91293 | 35758 ft | 352 kts | 239° |
| 2026-05-07 17:41 | 43.58355 | -66.97017 | 35757 ft | 352 kts | 242° |
| 2026-05-07 17:41 | 43.56049 | -67.02964 | 35760 ft | 351 kts | 245° |
| 2026-05-07 17:42 | 43.54071 | -67.09112 | 35765 ft | 350 kts | 248° |
| 2026-05-07 17:42 | 43.52317 | -67.15315 | 35762 ft | 348 kts | 249° |
| 2026-05-07 17:43 | 43.50548 | -67.21542 | 35768 ft | 348 kts | 249° |
| 2026-05-07 17:43 | 43.48786 | -67.27768 | 35761 ft | 348 kts | 249° |
| 2026-05-07 17:44 | 43.47026 | -67.33988 | 35772 ft | 348 kts | 249° |
| 2026-05-07 17:44 | 43.45263 | -67.40214 | 35770 ft | 348 kts | 249° |
| 2026-05-07 17:45 | 43.43512 | -67.46392 | 35773 ft | 348 kts | 249° |
| 2026-05-07 17:45 | 43.41748 | -67.52602 | 35772 ft | 348 kts | 249° |
| 2026-05-07 17:46 | 43.39982 | -67.58805 | 35769 ft | 348 kts | 249° |
| 2026-05-07 17:46 | 43.38213 | -67.65002 | 35772 ft | 347 kts | 249° |
| 2026-05-07 17:47 | 43.36443 | -67.71192 | 35777 ft | 347 kts | 249° |
| 2026-05-07 17:47 | 43.28101 | -68.00164 | 35782 ft | 346 kts | 248° |
| 2026-05-07 17:48 | 43.19077 | -68.31129 | 35791 ft | 346 kts | 248° |
| 2026-05-07 17:48 | 43.15327 | -68.43886 | 35789 ft | 346 kts | 248° |
| 2026-05-07 17:49 | 43.14421 | -68.46956 | 35656 ft | 346 kts | 248° |
| 2026-05-07 17:49 | 43.13519 | -68.50008 | 35394 ft | 343 kts | 248° |
| 2026-05-07 17:49 | 43.12628 | -68.53021 | 35112 ft | 339 kts | 248° |
| 2026-05-07 17:49 | 43.11747 | -68.55995 | 34737 ft | 336 kts | 248° |
| 2026-05-07 17:50 | 43.10865 | -68.58968 | 34153 ft | 336 kts | 248° |
| 2026-05-07 17:50 | 43.09984 | -68.61937 | 33486 ft | 337 kts | 248° |
| 2026-05-07 17:50 | 43.09101 | -68.64911 | 32765 ft | 337 kts | 248° |
| 2026-05-07 17:50 | 43.08215 | -68.67892 | 32066 ft | 338 kts | 248° |
| 2026-05-07 17:51 | 43.07328 | -68.70873 | 31381 ft | 338 kts | 248° |
| 2026-05-07 17:51 | 43.06434 | -68.73873 | 30686 ft | 340 kts | 248° |
| 2026-05-07 17:51 | 43.05524 | -68.76922 | 29985 ft | 341 kts | 248° |
| 2026-05-07 17:51 | 43.04627 | -68.79925 | 29195 ft | 343 kts | 248° |
| 2026-05-07 17:52 | 43.03729 | -68.82923 | 28467 ft | 343 kts | 248° |
| 2026-05-07 17:52 | 43.02822 | -68.85950 | 27737 ft | 344 kts | 248° |
| 2026-05-07 17:52 | 43.01908 | -68.88995 | 27069 ft | 345 kts | 248° |
| 2026-05-07 17:52 | 43.00999 | -68.92022 | 26618 ft | 344 kts | 248° |
| 2026-05-07 17:53 | 43.00088 | -68.95048 | 26254 ft | 343 kts | 248° |
| 2026-05-07 17:53 | 42.99182 | -68.98060 | 25808 ft | 340 kts | 248° |
| 2026-05-07 17:53 | 42.98284 | -69.01039 | 25408 ft | 337 kts | 248° |
| 2026-05-07 17:53 | 42.97394 | -69.03986 | 25010 ft | 334 kts | 248° |
| 2026-05-07 17:54 | 42.96508 | -69.06918 | 24611 ft | 332 kts | 248° |
| 2026-05-07 17:54 | 42.95628 | -69.09827 | 24214 ft | 330 kts | 248° |
| 2026-05-07 17:54 | 42.94752 | -69.12721 | 23830 ft | 328 kts | 248° |
| 2026-05-07 17:54 | 42.93877 | -69.15609 | 23464 ft | 329 kts | 248° |
| 2026-05-07 17:55 | 42.92999 | -69.18503 | 23033 ft | 329 kts | 248° |
| 2026-05-07 17:55 | 42.92135 | -69.21352 | 22640 ft | 328 kts | 248° |
| 2026-05-07 17:55 | 42.91261 | -69.24230 | 22257 ft | 327 kts | 247° |
| 2026-05-07 17:55 | 42.90387 | -69.27104 | 21888 ft | 327 kts | 247° |
| 2026-05-07 17:56 | 42.89515 | -69.29967 | 21520 ft | 326 kts | 247° |
| 2026-05-07 17:56 | 42.88647 | -69.32817 | 21156 ft | 325 kts | 247° |
| 2026-05-07 17:56 | 42.87778 | -69.35663 | 20794 ft | 324 kts | 246° |
| 2026-05-07 17:56 | 42.86992 | -69.38233 | 20460 ft | 324 kts | 246° |
| 2026-05-07 17:57 | 42.86096 | -69.41163 | 20092 ft | 324 kts | 246° |
| 2026-05-07 17:57 | 42.85519 | -69.43045 | 19834 ft | 323 kts | 246° |
| 2026-05-07 17:57 | 42.84652 | -69.45877 | 19440 ft | 323 kts | 246° |
| 2026-05-07 17:57 | 42.83492 | -69.49655 | 18901 ft | 322 kts | 246° |
| 2026-05-07 17:58 | 42.82625 | -69.52475 | 18500 ft | 322 kts | 245° |
| 2026-05-07 17:58 | 42.81768 | -69.55262 | 18091 ft | 322 kts | 245° |
| 2026-05-07 17:58 | 42.80899 | -69.58077 | 17638 ft | 321 kts | 245° |
| 2026-05-07 17:58 | 42.80034 | -69.60875 | 17227 ft | 320 kts | 245° |
| 2026-05-07 17:59 | 42.79450 | -69.62765 | 16968 ft | 318 kts | 245° |
| 2026-05-07 17:59 | 42.78316 | -69.66430 | 16439 ft | 316 kts | 246° |
| 2026-05-07 17:59 | 42.77464 | -69.69180 | 16072 ft | 314 kts | 246° |
| 2026-05-07 17:59 | 42.76903 | -69.70991 | 15832 ft | 312 kts | 246° |
| 2026-05-07 18:00 | 42.75776 | -69.74624 | 15324 ft | 310 kts | 246° |
| 2026-05-07 18:00 | 42.75222 | -69.76409 | 15076 ft | 309 kts | 246° |
| 2026-05-07 18:00 | 42.74386 | -69.79101 | 14718 ft | 307 kts | 246° |
| 2026-05-07 18:00 | 42.73556 | -69.81773 | 14353 ft | 305 kts | 246° |
| 2026-05-07 18:01 | 42.72727 | -69.84435 | 13993 ft | 304 kts | 246° |
| 2026-05-07 18:01 | 42.71904 | -69.87078 | 13625 ft | 303 kts | 246° |
| 2026-05-07 18:01 | 42.71081 | -69.89714 | 13204 ft | 302 kts | 247° |
| 2026-05-07 18:01 | 42.70260 | -69.92338 | 12804 ft | 300 kts | 247° |
| 2026-05-07 18:02 | 42.68635 | -69.97532 | 12009 ft | 299 kts | 247° |
| 2026-05-07 18:02 | 42.67817 | -70.00139 | 11613 ft | 299 kts | 248° |
| 2026-05-07 18:02 | 42.67001 | -70.02742 | 11212 ft | 299 kts | 248° |
| 2026-05-07 18:03 | 42.66184 | -70.05343 | 10816 ft | 299 kts | 248° |
| 2026-05-07 18:03 | 42.65379 | -70.07908 | 10677 ft | 288 kts | 248° |
| 2026-05-07 18:03 | 42.64587 | -70.10350 | 10595 ft | 275 kts | 247° |
| 2026-05-07 18:03 | 42.63791 | -70.12661 | 10491 ft | 263 kts | 246° |
| 2026-05-07 18:04 | 42.63027 | -70.14864 | 10401 ft | 252 kts | 246° |
| 2026-05-07 18:04 | 42.62298 | -70.16968 | 10306 ft | 241 kts | 247° |
| 2026-05-07 18:04 | 42.61610 | -70.18960 | 10219 ft | 231 kts | 247° |
| 2026-05-07 18:04 | 42.60934 | -70.20910 | 10138 ft | 226 kts | 245° |
| 2026-05-07 18:05 | 42.60000 | -70.22628 | 10024 ft | 228 kts | 229° |
| 2026-05-07 18:05 | 42.58636 | -70.23915 | 10007 ft | 252 kts | 213° |
| 2026-05-07 18:05 | 42.56990 | -70.24867 | 10008 ft | 260 kts | 210° |
| 2026-05-07 18:05 | 42.55302 | -70.25789 | 9941 ft | 262 kts | 210° |
| 2026-05-07 18:06 | 42.53606 | -70.26706 | 9555 ft | 263 kts | 210° |
| 2026-05-07 18:06 | 42.51915 | -70.27619 | 9206 ft | 261 kts | 209° |
| 2026-05-07 18:06 | 42.50246 | -70.28550 | 8861 ft | 256 kts | 216° |
| 2026-05-07 18:06 | 42.48963 | -70.30088 | 8526 ft | 243 kts | 237° |
| 2026-05-07 18:07 | 42.48005 | -70.31961 | 8181 ft | 241 kts | 243° |
| 2026-05-07 18:07 | 42.47299 | -70.34008 | 7828 ft | 238 kts | 253° |
| 2026-05-07 18:07 | 42.46889 | -70.36172 | 7514 ft | 236 kts | 261° |
| 2026-05-07 18:07 | 42.46614 | -70.38373 | 7209 ft | 236 kts | 262° |
| 2026-05-07 18:08 | 42.46331 | -70.40557 | 6934 ft | 234 kts | 261° |
| 2026-05-07 18:08 | 42.46020 | -70.42723 | 6677 ft | 233 kts | 261° |
| 2026-05-07 18:08 | 42.45686 | -70.44869 | 6429 ft | 232 kts | 260° |
| 2026-05-07 18:08 | 42.45339 | -70.46968 | 6217 ft | 229 kts | 260° |
| 2026-05-07 18:09 | 42.44981 | -70.49026 | 6218 ft | 223 kts | 259° |
| 2026-05-07 18:09 | 42.44616 | -70.51064 | 6220 ft | 223 kts | 259° |
| 2026-05-07 18:09 | 42.44244 | -70.53107 | 6192 ft | 223 kts | 259° |
| 2026-05-07 18:09 | 42.43867 | -70.55154 | 6113 ft | 224 kts | 259° |
| 2026-05-07 18:10 | 42.43488 | -70.57202 | 5871 ft | 223 kts | 259° |
| 2026-05-07 18:10 | 42.43109 | -70.59246 | 5620 ft | 223 kts | 258° |
| 2026-05-07 18:10 | 42.42733 | -70.61278 | 5322 ft | 220 kts | 258° |
| 2026-05-07 18:10 | 42.42370 | -70.63249 | 5089 ft | 208 kts | 258° |
| 2026-05-07 18:11 | 42.42031 | -70.65089 | 4907 ft | 195 kts | 259° |
| 2026-05-07 18:11 | 42.41713 | -70.66833 | 4664 ft | 185 kts | 259° |
| 2026-05-07 18:11 | 42.41415 | -70.68473 | 4439 ft | 174 kts | 259° |
| 2026-05-07 18:11 | 42.41133 | -70.70035 | 4260 ft | 168 kts | 259° |
| 2026-05-07 18:12 | 42.40857 | -70.71572 | 4071 ft | 167 kts | 259° |
| 2026-05-07 18:12 | 42.40584 | -70.73100 | 3892 ft | 167 kts | 258° |
| 2026-05-07 18:12 | 42.40310 | -70.74624 | 3664 ft | 164 kts | 259° |
| 2026-05-07 18:12 | 42.40042 | -70.76116 | 3451 ft | 161 kts | 259° |
| 2026-05-07 18:13 | 42.39782 | -70.77570 | 3227 ft | 160 kts | 259° |
| 2026-05-07 18:13 | 42.39521 | -70.79040 | 3004 ft | 160 kts | 259° |
| 2026-05-07 18:13 | 42.39259 | -70.80508 | 2783 ft | 159 kts | 259° |
| 2026-05-07 18:13 | 42.38999 | -70.81965 | 2562 ft | 159 kts | 259° |
| 2026-05-07 18:14 | 42.38741 | -70.83420 | 2361 ft | 159 kts | 258° |
| 2026-05-07 18:14 | 42.38485 | -70.84851 | 2127 ft | 153 kts | 259° |
| 2026-05-07 18:14 | 42.38232 | -70.86275 | 1925 ft | 157 kts | 259° |
| 2026-05-07 18:14 | 42.37978 | -70.87714 | 1731 ft | 157 kts | 258° |
| 2026-05-07 18:15 | 42.37723 | -70.89151 | 1521 ft | 157 kts | 258° |
| 2026-05-07 18:15 | 42.37467 | -70.90585 | 1284 ft | 156 kts | 259° |
| 2026-05-07 18:15 | 42.37219 | -70.91996 | 1074 ft | 156 kts | 258° |
| 2026-05-07 18:15 | 42.36962 | -70.93442 | 864 ft | 155 kts | 258° |
| 2026-05-07 18:16 | 42.36714 | -70.94852 | 641 ft | 155 kts | 257° |
| 2026-05-07 18:16 | 42.36461 | -70.96270 | 430 ft | 154 kts | 258° |
| 2026-05-07 18:16 | 42.36208 | -70.97692 | 230 ft | 152 kts | 259° |
| 2026-05-07 18:16 | 42.35967 | -70.99073 | 44 ft | 146 kts | 257° |
| 2026-05-07 18:17 | 42.35789 | -71.00085 | 34 ft | 62 kts | 256° |
| 2026-05-07 18:17 | 42.35756 | -71.00267 | 34 ft | 0 kts | 256° |
| 2026-05-07 18:17 | 42.35743 | -71.00339 | 34 ft | 16 kts | 256° |
| 2026-05-07 18:17 | 42.35715 | -71.00498 | 34 ft | 19 kts | 257° |
| 2026-05-07 18:18 | 42.35684 | -71.00681 | 34 ft | 21 kts | 257° |
| 2026-05-07 18:18 | 42.35649 | -71.00883 | 34 ft | 23 kts | 257° |
| 2026-05-07 18:18 | 42.35642 | -71.01101 | 34 ft | 24 kts | 287° |
| 2026-05-07 18:18 | 42.35690 | -71.01208 | 34 ft | 1 kts | 310° |
| 2026-05-07 18:19 | 42.35716 | -71.01251 | 34 ft | 8 kts | 306° |
| 2026-05-07 18:19 | 42.35747 | -71.01329 | 34 ft | 11 kts | 291° |
| 2026-05-07 18:19 | 42.35777 | -71.01438 | 34 ft | 13 kts | 290° |
| 2026-05-07 18:19 | 42.35803 | -71.01537 | 34 ft | 8 kts | 290° |
| 2026-05-07 18:20 | 42.35824 | -71.01624 | 34 ft | 11 kts | 300° |
| 2026-05-07 18:20 | 42.35898 | -71.01643 | 34 ft | 13 kts | 19° |
| 2026-05-07 18:20 | 42.35993 | -71.01597 | 34 ft | 16 kts | 20° |
| 2026-05-07 18:20 | 42.36108 | -71.01541 | 34 ft | 19 kts | 19° |
| 2026-05-07 18:21 | 42.36240 | -71.01478 | 34 ft | 22 kts | 19° |
| 2026-05-07 18:21 | 42.36392 | -71.01405 | 34 ft | 24 kts | 19° |
| 2026-05-07 18:21 | 42.36520 | -71.01334 | 34 ft | 17 kts | 25° |
| 2026-05-07 18:21 | 42.36621 | -71.01278 | 34 ft | 20 kts | 17° |
| 2026-05-07 18:22 | 42.36699 | -71.01249 | 34 ft | 16 kts | 12° |
| 2026-05-07 18:22 | 42.36776 | -71.01261 | 34 ft | 18 kts | 329° |
| 2026-05-07 18:22 | 42.36910 | -71.01431 | 34 ft | 22 kts | 315° |
| 2026-05-07 18:22 | 42.36995 | -71.01551 | 34 ft | 19 kts | 315° |
| 2026-05-07 18:23 | 42.37092 | -71.01687 | 34 ft | 21 kts | 307° |
| 2026-05-07 18:23 | 42.37176 | -71.01860 | 34 ft | 17 kts | 303° |
| 2026-05-07 18:23 | 42.37219 | -71.01954 | 34 ft | 12 kts | 294° |
| 2026-05-07 18:23 | 42.37238 | -71.02078 | 34 ft | 14 kts | 272° |
| 2026-05-07 18:24 | 42.37186 | -71.02196 | 34 ft | 16 kts | 222° |
| 2026-05-07 18:24 | 42.37145 | -71.02260 | 34 ft | 10 kts | 244° |
| 2026-05-07 18:24 | 42.37097 | -71.02329 | 34 ft | 11 kts | 212° |
| 2026-05-07 18:24 | 42.37068 | -71.02351 | 34 ft | 0 kts | 208° |
| 2026-05-07 18:25 | 42.37067 | -71.02352 | 34 ft | 0 kts | 208° |
| 2026-05-07 18:25 | 42.37065 | -71.02353 | 34 ft | 0 kts | 208° |